BAW3457 KATL-EGSS
Flight info
| Callsign | BAW3457 |
|---|---|
| Flight time | 7h 32m |
| Altitude | 35000 |
| Route | PHIIL3 HRTWL Q64 SAWED Q108 ZJAAY Q167 RIFLE DCT ACK/N0490F330 DCT TUSKY N261A JOOPY/M084F330 DCT 49N050W 51N040W 53N030W 53N020W DCT MALOT/N0482F330 DCT GISTI/N0481F350 DCT KORAK DCT BOFUM Q37 MALUD Q38 VOLFI Z197 LISTO LISTO1L |
| Aircraft | B748/H-SDE3FGHIJM1M2RWXYZ/LB1 |
Departure
| Time | 2026-05-05 13:06 |
|---|---|
| Airport | Hartsfield Jackson Atlanta International Airport (KATL) |
Arrival
| Time | 2026-05-05 20:38 |
|---|---|
| Airport | London Stansted Airport (EGSS) |
| Time | Latitude | Longitude | Altitude | Speed | Heading |
|---|---|---|---|---|---|
| 2026-05-05 12:29 | 33.65364 | -84.41394 | 1013 ft | 0 kts | 40° |
| 2026-05-05 12:41 | 33.65365 | -84.41394 | 1013 ft | 0 kts | 40° |
| 2026-05-05 12:52 | 33.65361 | -84.41398 | 1013 ft | 2 kts | 41° |
| 2026-05-05 12:52 | 33.65347 | -84.41413 | 1013 ft | 3 kts | 52° |
| 2026-05-05 12:53 | 33.65335 | -84.41431 | 1013 ft | 3 kts | 65° |
| 2026-05-05 12:53 | 33.65327 | -84.41451 | 1013 ft | 3 kts | 80° |
| 2026-05-05 12:53 | 33.65325 | -84.41474 | 1013 ft | 3 kts | 96° |
| 2026-05-05 12:53 | 33.65327 | -84.41496 | 1013 ft | 3 kts | 110° |
| 2026-05-05 12:54 | 33.65340 | -84.41529 | 1013 ft | 0 kts | 130° |
| 2026-05-05 12:56 | 33.65335 | -84.41521 | 1013 ft | 3 kts | 127° |
| 2026-05-05 12:56 | 33.65313 | -84.41482 | 1013 ft | 8 kts | 129° |
| 2026-05-05 12:56 | 33.65264 | -84.41455 | 1013 ft | 9 kts | 172° |
| 2026-05-05 12:57 | 33.65188 | -84.41453 | 1013 ft | 13 kts | 179° |
| 2026-05-05 12:57 | 33.65103 | -84.41492 | 1013 ft | 14 kts | 231° |
| 2026-05-05 12:57 | 33.65064 | -84.41611 | 1012 ft | 17 kts | 261° |
| 2026-05-05 12:57 | 33.65064 | -84.41767 | 1013 ft | 19 kts | 269° |
| 2026-05-05 12:58 | 33.65064 | -84.41931 | 1013 ft | 20 kts | 269° |
| 2026-05-05 12:58 | 33.65065 | -84.42100 | 1013 ft | 21 kts | 271° |
| 2026-05-05 12:58 | 33.65058 | -84.42210 | 1013 ft | 8 kts | 242° |
| 2026-05-05 12:58 | 33.65020 | -84.42238 | 1013 ft | 6 kts | 194° |
| 2026-05-05 12:59 | 33.64967 | -84.42237 | 1013 ft | 11 kts | 179° |
| 2026-05-05 12:59 | 33.64856 | -84.42237 | 1013 ft | 20 kts | 180° |
| 2026-05-05 12:59 | 33.64702 | -84.42237 | 1011 ft | 23 kts | 180° |
| 2026-05-05 13:00 | 33.64369 | -84.42233 | 1013 ft | 25 kts | 180° |
| 2026-05-05 13:00 | 33.64193 | -84.42239 | 1013 ft | 25 kts | 180° |
| 2026-05-05 13:01 | 33.63697 | -84.42232 | 1013 ft | 22 kts | 182° |
| 2026-05-05 13:01 | 33.63605 | -84.42228 | 1013 ft | 8 kts | 156° |
| 2026-05-05 13:01 | 33.63582 | -84.42182 | 1014 ft | 7 kts | 101° |
| 2026-05-05 13:01 | 33.63583 | -84.42097 | 1013 ft | 14 kts | 89° |
| 2026-05-05 13:02 | 33.63582 | -84.41954 | 1013 ft | 20 kts | 91° |
| 2026-05-05 13:02 | 33.63583 | -84.41761 | 1012 ft | 25 kts | 90° |
| 2026-05-05 13:02 | 33.63582 | -84.41552 | 1012 ft | 26 kts | 90° |
| 2026-05-05 13:02 | 33.63582 | -84.41335 | 1012 ft | 26 kts | 90° |
| 2026-05-05 13:03 | 33.63582 | -84.41112 | 1013 ft | 27 kts | 89° |
| 2026-05-05 13:03 | 33.63584 | -84.40958 | 1013 ft | 9 kts | 91° |
| 2026-05-05 13:03 | 33.63575 | -84.40930 | 1013 ft | 3 kts | 126° |
| 2026-05-05 13:03 | 33.63550 | -84.40910 | 1013 ft | 6 kts | 156° |
| 2026-05-05 13:04 | 33.63509 | -84.40914 | 1013 ft | 6 kts | 204° |
| 2026-05-05 13:04 | 33.63480 | -84.40957 | 1013 ft | 9 kts | 243° |
| 2026-05-05 13:04 | 33.63471 | -84.41026 | 1013 ft | 6 kts | 269° |
| 2026-05-05 13:04 | 33.63470 | -84.41074 | 1012 ft | 6 kts | 269° |
| 2026-05-05 13:05 | 33.63470 | -84.41128 | 1012 ft | 11 kts | 269° |
| 2026-05-05 13:05 | 33.63470 | -84.41445 | 1013 ft | 68 kts | 270° |
| 2026-05-05 13:05 | 33.63470 | -84.42250 | 1013 ft | 122 kts | 270° |
| 2026-05-05 13:05 | 33.63469 | -84.43451 | 1014 ft | 164 kts | 270° |
| 2026-05-05 13:06 | 33.63471 | -84.44925 | 1200 ft | 182 kts | 270° |
| 2026-05-05 13:06 | 33.63487 | -84.46422 | 1873 ft | 174 kts | 269° |
| 2026-05-05 13:06 | 33.63400 | -84.47855 | 2368 ft | 178 kts | 253° |
| 2026-05-05 13:06 | 33.62904 | -84.49233 | 2767 ft | 180 kts | 237° |
| 2026-05-05 13:07 | 33.62262 | -84.50505 | 3285 ft | 177 kts | 236° |
| 2026-05-05 13:07 | 33.61608 | -84.51791 | 3690 ft | 186 kts | 237° |
| 2026-05-05 13:07 | 33.60948 | -84.53195 | 3984 ft | 201 kts | 240° |
| 2026-05-05 13:07 | 33.60311 | -84.54747 | 4304 ft | 213 kts | 242° |
| 2026-05-05 13:08 | 33.59643 | -84.56403 | 4608 ft | 226 kts | 239° |
| 2026-05-05 13:08 | 33.58602 | -84.57778 | 4958 ft | 231 kts | 212° |
| 2026-05-05 13:08 | 33.57089 | -84.58447 | 5284 ft | 238 kts | 185° |
| 2026-05-05 13:08 | 33.55395 | -84.58498 | 5626 ft | 250 kts | 181° |
| 2026-05-05 13:09 | 33.53627 | -84.58469 | 5934 ft | 259 kts | 180° |
| 2026-05-05 13:09 | 33.51796 | -84.58448 | 6308 ft | 265 kts | 181° |
| 2026-05-05 13:09 | 33.49951 | -84.58446 | 6721 ft | 267 kts | 179° |
| 2026-05-05 13:09 | 33.48138 | -84.57939 | 7201 ft | 272 kts | 154° |
| 2026-05-05 13:10 | 33.46645 | -84.56523 | 7695 ft | 281 kts | 129° |
| 2026-05-05 13:10 | 33.45792 | -84.54403 | 8211 ft | 288 kts | 102° |
| 2026-05-05 13:10 | 33.45642 | -84.51991 | 8760 ft | 294 kts | 92° |
| 2026-05-05 13:10 | 33.45645 | -84.49526 | 9300 ft | 297 kts | 90° |
| 2026-05-05 13:11 | 33.45668 | -84.47045 | 9829 ft | 299 kts | 91° |
| 2026-05-05 13:11 | 33.45654 | -84.44531 | 10353 ft | 305 kts | 91° |
| 2026-05-05 13:11 | 33.45637 | -84.42830 | 10682 ft | 311 kts | 91° |
| 2026-05-05 13:12 | 33.45650 | -84.33627 | 12428 ft | 342 kts | 81° |
| 2026-05-05 13:12 | 33.46203 | -84.30878 | 12974 ft | 349 kts | 73° |
| 2026-05-05 13:12 | 33.46960 | -84.28083 | 13519 ft | 357 kts | 71° |
| 2026-05-05 13:13 | 33.47746 | -84.25220 | 13999 ft | 367 kts | 72° |
| 2026-05-05 13:13 | 33.48488 | -84.22253 | 14427 ft | 377 kts | 73° |
| 2026-05-05 13:13 | 33.49221 | -84.19244 | 14871 ft | 386 kts | 73° |
| 2026-05-05 13:13 | 33.50011 | -84.16123 | 15323 ft | 396 kts | 72° |
| 2026-05-05 13:14 | 33.50833 | -84.12930 | 15773 ft | 406 kts | 72° |
| 2026-05-05 13:14 | 33.51662 | -84.09651 | 16246 ft | 416 kts | 72° |
| 2026-05-05 13:14 | 33.52504 | -84.06289 | 16697 ft | 426 kts | 72° |
| 2026-05-05 13:14 | 33.53363 | -84.02867 | 17183 ft | 431 kts | 71° |
| 2026-05-05 13:15 | 33.54234 | -83.99410 | 17662 ft | 436 kts | 71° |
| 2026-05-05 13:15 | 33.55113 | -83.95917 | 18145 ft | 439 kts | 71° |
| 2026-05-05 13:15 | 33.55996 | -83.92391 | 18591 ft | 443 kts | 71° |
| 2026-05-05 13:15 | 33.56883 | -83.88845 | 19009 ft | 446 kts | 71° |
| 2026-05-05 13:16 | 33.57778 | -83.85268 | 19427 ft | 449 kts | 71° |
| 2026-05-05 13:16 | 33.58789 | -83.81720 | 19871 ft | 450 kts | 63° |
| 2026-05-05 13:16 | 33.60084 | -83.78294 | 20313 ft | 453 kts | 62° |
| 2026-05-05 13:16 | 33.61435 | -83.74873 | 20763 ft | 455 kts | 60° |
| 2026-05-05 13:17 | 33.62777 | -83.71410 | 21200 ft | 460 kts | 63° |
| 2026-05-05 13:17 | 33.64035 | -83.67920 | 21662 ft | 463 kts | 63° |
| 2026-05-05 13:17 | 33.65349 | -83.64379 | 22120 ft | 466 kts | 62° |
| 2026-05-05 13:17 | 33.66802 | -83.60897 | 22598 ft | 468 kts | 59° |
| 2026-05-05 13:18 | 33.68260 | -83.57391 | 23073 ft | 472 kts | 60° |
| 2026-05-05 13:18 | 33.69687 | -83.53820 | 23559 ft | 476 kts | 60° |
| 2026-05-05 13:18 | 33.71134 | -83.50235 | 23980 ft | 478 kts | 60° |
| 2026-05-05 13:18 | 33.72616 | -83.46647 | 24384 ft | 481 kts | 59° |
| 2026-05-05 13:19 | 33.74101 | -83.43041 | 24810 ft | 483 kts | 59° |
| 2026-05-05 13:19 | 33.75574 | -83.39409 | 25229 ft | 485 kts | 59° |
| 2026-05-05 13:19 | 33.77050 | -83.35758 | 25660 ft | 487 kts | 59° |
| 2026-05-05 13:19 | 33.78542 | -83.32097 | 26089 ft | 488 kts | 59° |
| 2026-05-05 13:20 | 33.80038 | -83.28428 | 26527 ft | 489 kts | 58° |
| 2026-05-05 13:20 | 33.81531 | -83.24748 | 26976 ft | 491 kts | 58° |
| 2026-05-05 13:20 | 33.83025 | -83.21052 | 27424 ft | 492 kts | 58° |
| 2026-05-05 13:20 | 33.84523 | -83.17350 | 27878 ft | 493 kts | 58° |
| 2026-05-05 13:21 | 33.86028 | -83.13636 | 28352 ft | 494 kts | 58° |
| 2026-05-05 13:21 | 33.87530 | -83.09918 | 28819 ft | 495 kts | 58° |
| 2026-05-05 13:21 | 33.89035 | -83.06186 | 29293 ft | 495 kts | 57° |
| 2026-05-05 13:21 | 33.90538 | -83.02456 | 29734 ft | 497 kts | 57° |
| 2026-05-05 13:22 | 33.92035 | -82.98744 | 30065 ft | 501 kts | 57° |
| 2026-05-05 13:22 | 33.93562 | -82.94950 | 30358 ft | 505 kts | 57° |
| 2026-05-05 13:22 | 33.95097 | -82.91128 | 30653 ft | 508 kts | 57° |
| 2026-05-05 13:22 | 33.96640 | -82.87281 | 30948 ft | 512 kts | 56° |
| 2026-05-05 13:23 | 33.98194 | -82.83409 | 31096 ft | 518 kts | 56° |
| 2026-05-05 13:23 | 33.99779 | -82.79461 | 31107 ft | 528 kts | 56° |
| 2026-05-05 13:23 | 34.02990 | -82.71407 | 31112 ft | 535 kts | 57° |
| 2026-05-05 13:24 | 34.05672 | -82.64683 | 31108 ft | 535 kts | 56° |
| 2026-05-05 13:24 | 34.08895 | -82.56588 | 31097 ft | 536 kts | 57° |
| 2026-05-05 13:25 | 34.12111 | -82.48481 | 31081 ft | 535 kts | 57° |
| 2026-05-05 13:25 | 34.15319 | -82.40384 | 31104 ft | 534 kts | 57° |
| 2026-05-05 13:26 | 34.18515 | -82.32292 | 31119 ft | 534 kts | 57° |
| 2026-05-05 13:26 | 34.21711 | -82.24185 | 31131 ft | 534 kts | 57° |
| 2026-05-05 13:27 | 34.24904 | -82.16083 | 31132 ft | 532 kts | 55° |
| 2026-05-05 13:27 | 34.28662 | -82.08464 | 31131 ft | 527 kts | 51° |
| 2026-05-05 13:28 | 34.32471 | -82.00896 | 31116 ft | 527 kts | 52° |
| 2026-05-05 13:28 | 34.36264 | -81.93332 | 31107 ft | 526 kts | 52° |
| 2026-05-05 13:29 | 34.40058 | -81.85764 | 31109 ft | 526 kts | 52° |
| 2026-05-05 13:29 | 34.43818 | -81.78237 | 31110 ft | 526 kts | 52° |
| 2026-05-05 13:30 | 34.47597 | -81.70660 | 31129 ft | 525 kts | 53° |
| 2026-05-05 13:30 | 34.51372 | -81.63074 | 31121 ft | 525 kts | 53° |
| 2026-05-05 13:31 | 34.55137 | -81.55492 | 31118 ft | 525 kts | 53° |
| 2026-05-05 13:31 | 34.58899 | -81.47900 | 31106 ft | 525 kts | 53° |
| 2026-05-05 13:32 | 34.62652 | -81.40309 | 31116 ft | 524 kts | 54° |
| 2026-05-05 13:32 | 34.66401 | -81.32711 | 31122 ft | 524 kts | 54° |
| 2026-05-05 13:33 | 34.70140 | -81.25116 | 31134 ft | 524 kts | 54° |
| 2026-05-05 13:33 | 34.73879 | -81.17504 | 31139 ft | 524 kts | 54° |
| 2026-05-05 13:34 | 34.77609 | -81.09896 | 31141 ft | 524 kts | 54° |
| 2026-05-05 13:34 | 34.81013 | -81.02113 | 31114 ft | 528 kts | 61° |
| 2026-05-05 13:35 | 34.84008 | -80.93959 | 31114 ft | 527 kts | 62° |
| 2026-05-05 13:35 | 34.87017 | -80.85820 | 31120 ft | 527 kts | 62° |
| 2026-05-05 13:36 | 34.90007 | -80.77677 | 31107 ft | 527 kts | 62° |
| 2026-05-05 13:36 | 34.92994 | -80.69536 | 31119 ft | 526 kts | 62° |
| 2026-05-05 13:37 | 34.95975 | -80.61386 | 31120 ft | 526 kts | 62° |
| 2026-05-05 13:37 | 34.98948 | -80.53238 | 31117 ft | 526 kts | 62° |
| 2026-05-05 13:38 | 35.01917 | -80.45081 | 31112 ft | 526 kts | 62° |
| 2026-05-05 13:38 | 35.04859 | -80.36974 | 31115 ft | 526 kts | 62° |
| 2026-05-05 13:39 | 35.07817 | -80.28807 | 31122 ft | 526 kts | 62° |
| 2026-05-05 13:39 | 35.10766 | -80.20639 | 31124 ft | 526 kts | 63° |
| 2026-05-05 13:40 | 35.13713 | -80.12458 | 31123 ft | 526 kts | 63° |
| 2026-05-05 13:40 | 35.16651 | -80.04279 | 31122 ft | 526 kts | 63° |
| 2026-05-05 13:41 | 35.19589 | -79.96081 | 31118 ft | 526 kts | 63° |
| 2026-05-05 13:41 | 35.22527 | -79.87889 | 31114 ft | 526 kts | 63° |
| 2026-05-05 13:42 | 35.25458 | -79.79685 | 31098 ft | 526 kts | 63° |
| 2026-05-05 13:42 | 35.28384 | -79.71476 | 31113 ft | 526 kts | 63° |
| 2026-05-05 13:43 | 35.31264 | -79.63372 | 31121 ft | 526 kts | 63° |
| 2026-05-05 13:43 | 35.34179 | -79.55149 | 31128 ft | 526 kts | 63° |
| 2026-05-05 13:44 | 35.37088 | -79.46924 | 31132 ft | 526 kts | 63° |
| 2026-05-05 13:44 | 35.39992 | -79.38687 | 31123 ft | 526 kts | 63° |
| 2026-05-05 13:45 | 35.42889 | -79.30452 | 31122 ft | 526 kts | 64° |
| 2026-05-05 13:45 | 35.45765 | -79.22254 | 31123 ft | 527 kts | 64° |
| 2026-05-05 13:46 | 35.48655 | -79.13994 | 31128 ft | 527 kts | 64° |
| 2026-05-05 13:46 | 35.51541 | -79.05723 | 31129 ft | 527 kts | 64° |
| 2026-05-05 13:47 | 35.54419 | -78.97454 | 31130 ft | 527 kts | 64° |
| 2026-05-05 13:47 | 35.57293 | -78.89172 | 31120 ft | 527 kts | 64° |
| 2026-05-05 13:48 | 35.60163 | -78.80881 | 31128 ft | 527 kts | 64° |
| 2026-05-05 13:48 | 35.63027 | -78.72580 | 31123 ft | 528 kts | 64° |
| 2026-05-05 13:49 | 35.65888 | -78.64260 | 31114 ft | 528 kts | 64° |
| 2026-05-05 13:49 | 35.68725 | -78.55991 | 31122 ft | 529 kts | 64° |
| 2026-05-05 13:50 | 35.71576 | -78.47658 | 31121 ft | 528 kts | 64° |
| 2026-05-05 13:50 | 35.74422 | -78.39320 | 31121 ft | 528 kts | 65° |
| 2026-05-05 13:51 | 35.77266 | -78.30972 | 31118 ft | 529 kts | 65° |
| 2026-05-05 13:51 | 35.80102 | -78.22623 | 31122 ft | 529 kts | 65° |
| 2026-05-05 13:52 | 35.82936 | -78.14257 | 31127 ft | 529 kts | 65° |
| 2026-05-05 13:52 | 35.85766 | -78.05880 | 31135 ft | 529 kts | 65° |
| 2026-05-05 13:53 | 35.88588 | -77.97504 | 31137 ft | 529 kts | 65° |
| 2026-05-05 13:53 | 35.91407 | -77.89113 | 31131 ft | 530 kts | 65° |
| 2026-05-05 13:54 | 35.94201 | -77.80773 | 31135 ft | 530 kts | 65° |
| 2026-05-05 13:54 | 35.97081 | -77.72410 | 31139 ft | 528 kts | 59° |
| 2026-05-05 13:55 | 35.99066 | -77.68627 | 31144 ft | 524 kts | 48° |
| 2026-05-05 13:55 | 36.01473 | -77.65265 | 31131 ft | 522 kts | 44° |
| 2026-05-05 13:55 | 36.06411 | -77.58685 | 31136 ft | 522 kts | 44° |
| 2026-05-05 13:56 | 36.11326 | -77.52065 | 31130 ft | 523 kts | 45° |
| 2026-05-05 13:56 | 36.16252 | -77.45441 | 31115 ft | 523 kts | 44° |
| 2026-05-05 13:57 | 36.21177 | -77.38800 | 31124 ft | 524 kts | 45° |
| 2026-05-05 13:57 | 36.26102 | -77.32144 | 31127 ft | 524 kts | 45° |
| 2026-05-05 13:58 | 36.31033 | -77.25480 | 31128 ft | 524 kts | 43° |
| 2026-05-05 13:58 | 36.36390 | -77.19384 | 31124 ft | 523 kts | 39° |
| 2026-05-05 13:59 | 36.44475 | -77.10343 | 31125 ft | 524 kts | 39° |
| 2026-05-05 14:00 | 36.51728 | -77.02220 | 31108 ft | 525 kts | 39° |
| 2026-05-05 14:00 | 36.58018 | -76.95129 | 31109 ft | 525 kts | 39° |
| 2026-05-05 14:01 | 36.63443 | -76.89020 | 31106 ft | 526 kts | 40° |
| 2026-05-05 14:01 | 36.68839 | -76.82917 | 31110 ft | 526 kts | 40° |
| 2026-05-05 14:02 | 36.74264 | -76.76779 | 31107 ft | 527 kts | 40° |
| 2026-05-05 14:02 | 36.79686 | -76.70626 | 31116 ft | 527 kts | 40° |
| 2026-05-05 14:03 | 36.85108 | -76.64463 | 31108 ft | 527 kts | 40° |
| 2026-05-05 14:03 | 36.90534 | -76.58283 | 31106 ft | 528 kts | 40° |
| 2026-05-05 14:04 | 36.95918 | -76.52139 | 31090 ft | 528 kts | 40° |
| 2026-05-05 14:04 | 37.01160 | -76.46145 | 31075 ft | 528 kts | 40° |
| 2026-05-05 14:05 | 37.06584 | -76.39929 | 31064 ft | 528 kts | 40° |
| 2026-05-05 14:05 | 37.12003 | -76.33708 | 31067 ft | 529 kts | 40° |
| 2026-05-05 14:06 | 37.17426 | -76.27470 | 31070 ft | 529 kts | 40° |
| 2026-05-05 14:06 | 37.22841 | -76.21227 | 31069 ft | 529 kts | 41° |
| 2026-05-05 14:07 | 37.28228 | -76.15004 | 31078 ft | 529 kts | 41° |
| 2026-05-05 14:07 | 37.33638 | -76.08741 | 31068 ft | 529 kts | 41° |
| 2026-05-05 14:08 | 37.39043 | -76.02472 | 31073 ft | 529 kts | 41° |
| 2026-05-05 14:08 | 37.44409 | -75.96236 | 31063 ft | 529 kts | 41° |
| 2026-05-05 14:09 | 37.49807 | -75.89949 | 31072 ft | 529 kts | 41° |
| 2026-05-05 14:09 | 37.55514 | -75.84174 | 31073 ft | 526 kts | 29° |
| 2026-05-05 14:10 | 37.61810 | -75.79492 | 31064 ft | 525 kts | 28° |
| 2026-05-05 14:10 | 37.68078 | -75.74780 | 31062 ft | 525 kts | 29° |
| 2026-05-05 14:11 | 37.74350 | -75.70068 | 31060 ft | 524 kts | 28° |
| 2026-05-05 14:11 | 37.80623 | -75.65347 | 31063 ft | 525 kts | 29° |
| 2026-05-05 14:12 | 37.86789 | -75.60406 | 31054 ft | 526 kts | 33° |
| 2026-05-05 14:12 | 37.92774 | -75.55191 | 31069 ft | 526 kts | 33° |
| 2026-05-05 14:13 | 37.98796 | -75.49950 | 31064 ft | 526 kts | 33° |
| 2026-05-05 14:13 | 38.04821 | -75.44685 | 31065 ft | 526 kts | 33° |
| 2026-05-05 14:14 | 38.10709 | -75.39157 | 31057 ft | 526 kts | 34° |
| 2026-05-05 14:14 | 38.16610 | -75.33640 | 31045 ft | 527 kts | 35° |
| 2026-05-05 14:15 | 38.22480 | -75.28068 | 31047 ft | 527 kts | 35° |
| 2026-05-05 14:15 | 38.28376 | -75.22513 | 31049 ft | 527 kts | 35° |
| 2026-05-05 14:16 | 38.34214 | -75.16964 | 31046 ft | 527 kts | 35° |
| 2026-05-05 14:16 | 38.40102 | -75.11380 | 31047 ft | 528 kts | 35° |
| 2026-05-05 14:17 | 38.45985 | -75.05775 | 31039 ft | 528 kts | 36° |
| 2026-05-05 14:17 | 38.51578 | -74.99680 | 31036 ft | 529 kts | 40° |
| 2026-05-05 14:18 | 38.57249 | -74.93704 | 31030 ft | 529 kts | 38° |
| 2026-05-05 14:18 | 38.62937 | -74.87741 | 31027 ft | 529 kts | 37° |
| 2026-05-05 14:19 | 38.68654 | -74.81823 | 31021 ft | 529 kts | 37° |
| 2026-05-05 14:19 | 38.74344 | -74.75867 | 31024 ft | 528 kts | 38° |
| 2026-05-05 14:20 | 38.79770 | -74.69631 | 31017 ft | 529 kts | 40° |
| 2026-05-05 14:20 | 38.85181 | -74.63319 | 31021 ft | 529 kts | 40° |
| 2026-05-05 14:21 | 38.90614 | -74.56950 | 31024 ft | 529 kts | 40° |
| 2026-05-05 14:21 | 38.96126 | -74.50705 | 31012 ft | 528 kts | 38° |
| 2026-05-05 14:22 | 39.01734 | -74.44636 | 31020 ft | 527 kts | 38° |
| 2026-05-05 14:22 | 39.07350 | -74.38584 | 31025 ft | 527 kts | 38° |
| 2026-05-05 14:23 | 39.12962 | -74.32511 | 31023 ft | 527 kts | 38° |
| 2026-05-05 14:23 | 39.18568 | -74.26432 | 31020 ft | 526 kts | 38° |
| 2026-05-05 14:24 | 39.24165 | -74.20354 | 31022 ft | 526 kts | 38° |
| 2026-05-05 14:24 | 39.28809 | -74.15293 | 31011 ft | 526 kts | 38° |
| 2026-05-05 14:25 | 39.34399 | -74.09199 | 31010 ft | 526 kts | 38° |
| 2026-05-05 14:25 | 39.40878 | -74.02112 | 31008 ft | 526 kts | 38° |
| 2026-05-05 14:26 | 39.45550 | -73.96991 | 31008 ft | 526 kts | 38° |
| 2026-05-05 14:26 | 39.51121 | -73.90863 | 31012 ft | 526 kts | 38° |
| 2026-05-05 14:27 | 39.56659 | -73.84765 | 31010 ft | 526 kts | 38° |
| 2026-05-05 14:27 | 39.62222 | -73.78622 | 31009 ft | 525 kts | 38° |
| 2026-05-05 14:28 | 39.67787 | -73.72465 | 31008 ft | 525 kts | 38° |
| 2026-05-05 14:28 | 39.73344 | -73.66302 | 31005 ft | 525 kts | 38° |
| 2026-05-05 14:29 | 39.78895 | -73.60133 | 31007 ft | 525 kts | 38° |
| 2026-05-05 14:29 | 39.84439 | -73.53959 | 31003 ft | 524 kts | 38° |
| 2026-05-05 14:30 | 39.89981 | -73.47788 | 31003 ft | 524 kts | 38° |
| 2026-05-05 14:30 | 39.95517 | -73.41616 | 31001 ft | 524 kts | 39° |
| 2026-05-05 14:31 | 40.01047 | -73.35431 | 31004 ft | 524 kts | 39° |
| 2026-05-05 14:31 | 40.06573 | -73.29242 | 31003 ft | 523 kts | 39° |
| 2026-05-05 14:32 | 40.12056 | -73.23081 | 31003 ft | 523 kts | 39° |
| 2026-05-05 14:32 | 40.17570 | -73.16861 | 30997 ft | 524 kts | 39° |
| 2026-05-05 14:33 | 40.23073 | -73.10645 | 30992 ft | 524 kts | 40° |
| 2026-05-05 14:33 | 40.28585 | -73.04402 | 30994 ft | 524 kts | 40° |
| 2026-05-05 14:34 | 40.34100 | -72.98143 | 31001 ft | 524 kts | 40° |
| 2026-05-05 14:34 | 40.39606 | -72.91879 | 30998 ft | 524 kts | 40° |
| 2026-05-05 14:35 | 40.45108 | -72.85605 | 31000 ft | 523 kts | 40° |
| 2026-05-05 14:35 | 40.50603 | -72.79327 | 30999 ft | 523 kts | 40° |
| 2026-05-05 14:36 | 40.56095 | -72.73037 | 30997 ft | 524 kts | 40° |
| 2026-05-05 14:36 | 40.61585 | -72.66734 | 31001 ft | 523 kts | 41° |
| 2026-05-05 14:37 | 40.66903 | -72.60300 | 31011 ft | 523 kts | 50° |
| 2026-05-05 14:37 | 40.69007 | -72.56398 | 31012 ft | 522 kts | 62° |
| 2026-05-05 14:37 | 40.70504 | -72.52058 | 31010 ft | 520 kts | 73° |
| 2026-05-05 14:38 | 40.72718 | -72.42996 | 31001 ft | 519 kts | 74° |
| 2026-05-05 14:38 | 40.74913 | -72.33923 | 30998 ft | 519 kts | 73° |
| 2026-05-05 14:39 | 40.77114 | -72.24855 | 30997 ft | 519 kts | 73° |
| 2026-05-05 14:39 | 40.79290 | -72.15791 | 30998 ft | 519 kts | 73° |
| 2026-05-05 14:40 | 40.81471 | -72.06724 | 30994 ft | 518 kts | 74° |
| 2026-05-05 14:40 | 40.83636 | -71.97646 | 31000 ft | 518 kts | 74° |
| 2026-05-05 14:41 | 40.85784 | -71.88636 | 30997 ft | 518 kts | 74° |
| 2026-05-05 14:41 | 40.87934 | -71.79559 | 30998 ft | 517 kts | 74° |
| 2026-05-05 14:42 | 40.90077 | -71.70493 | 31000 ft | 517 kts | 74° |
| 2026-05-05 14:42 | 40.92210 | -71.61419 | 31003 ft | 516 kts | 74° |
| 2026-05-05 14:43 | 40.94336 | -71.52347 | 31006 ft | 517 kts | 74° |
| 2026-05-05 14:43 | 40.96456 | -71.43261 | 31001 ft | 517 kts | 74° |
| 2026-05-05 14:44 | 40.98570 | -71.34167 | 31006 ft | 517 kts | 74° |
| 2026-05-05 14:44 | 41.00676 | -71.25073 | 31004 ft | 517 kts | 75° |
| 2026-05-05 14:45 | 41.02776 | -71.15964 | 31009 ft | 517 kts | 75° |
| 2026-05-05 14:45 | 41.04868 | -71.06851 | 31009 ft | 517 kts | 75° |
| 2026-05-05 14:46 | 41.06955 | -70.97726 | 31006 ft | 517 kts | 75° |
| 2026-05-05 14:46 | 41.09034 | -70.88601 | 31010 ft | 517 kts | 75° |
| 2026-05-05 14:47 | 41.11106 | -70.79466 | 31009 ft | 517 kts | 75° |
| 2026-05-05 14:47 | 41.13170 | -70.70329 | 31002 ft | 517 kts | 75° |
| 2026-05-05 14:48 | 41.15215 | -70.61238 | 31003 ft | 518 kts | 75° |
| 2026-05-05 14:48 | 41.17266 | -70.52081 | 31001 ft | 518 kts | 75° |
| 2026-05-05 14:49 | 41.19311 | -70.42920 | 31004 ft | 518 kts | 75° |
| 2026-05-05 14:49 | 41.21347 | -70.33752 | 31011 ft | 517 kts | 75° |
| 2026-05-05 14:50 | 41.23377 | -70.24583 | 31011 ft | 517 kts | 75° |
| 2026-05-05 14:50 | 41.25397 | -70.15406 | 31008 ft | 517 kts | 75° |
| 2026-05-05 14:51 | 41.27551 | -70.06282 | 31027 ft | 519 kts | 66° |
| 2026-05-05 14:51 | 41.29300 | -70.02085 | 31052 ft | 520 kts | 55° |
| 2026-05-05 14:51 | 41.31604 | -69.98388 | 31045 ft | 520 kts | 44° |
| 2026-05-05 14:52 | 41.36852 | -69.91752 | 31027 ft | 520 kts | 43° |
| 2026-05-05 14:52 | 41.42106 | -69.85137 | 31034 ft | 520 kts | 44° |
| 2026-05-05 14:53 | 41.47340 | -69.78488 | 31030 ft | 520 kts | 43° |
| 2026-05-05 14:53 | 41.52586 | -69.71846 | 31029 ft | 520 kts | 44° |
| 2026-05-05 14:54 | 41.57784 | -69.65221 | 31036 ft | 520 kts | 43° |
| 2026-05-05 14:54 | 41.60392 | -69.61903 | 31275 ft | 518 kts | 43° |
| 2026-05-05 14:54 | 41.63001 | -69.58576 | 31498 ft | 518 kts | 43° |
| 2026-05-05 14:55 | 41.65601 | -69.55252 | 31733 ft | 518 kts | 43° |
| 2026-05-05 14:55 | 41.68202 | -69.51923 | 31953 ft | 517 kts | 43° |
| 2026-05-05 14:55 | 41.70801 | -69.48597 | 32183 ft | 517 kts | 43° |
| 2026-05-05 14:55 | 41.73396 | -69.45271 | 32418 ft | 516 kts | 43° |
| 2026-05-05 14:56 | 41.75983 | -69.41950 | 32632 ft | 515 kts | 43° |
| 2026-05-05 14:56 | 41.78567 | -69.38628 | 32868 ft | 515 kts | 43° |
| 2026-05-05 14:56 | 41.81152 | -69.35304 | 33011 ft | 516 kts | 43° |
| 2026-05-05 14:56 | 41.83743 | -69.31967 | 33000 ft | 516 kts | 43° |
| 2026-05-05 14:57 | 41.88908 | -69.25302 | 32998 ft | 515 kts | 43° |
| 2026-05-05 14:57 | 41.94072 | -69.18625 | 32998 ft | 515 kts | 43° |
| 2026-05-05 14:58 | 41.99228 | -69.11939 | 33001 ft | 516 kts | 43° |
| 2026-05-05 14:58 | 42.04390 | -69.05231 | 32998 ft | 516 kts | 43° |
| 2026-05-05 14:59 | 42.09512 | -68.98559 | 32997 ft | 516 kts | 43° |
| 2026-05-05 14:59 | 42.14671 | -68.91824 | 32994 ft | 516 kts | 43° |
| 2026-05-05 15:00 | 42.18985 | -68.86179 | 32998 ft | 516 kts | 43° |
| 2026-05-05 15:00 | 42.24957 | -68.78344 | 32998 ft | 516 kts | 43° |
| 2026-05-05 15:01 | 42.30097 | -68.71585 | 32999 ft | 516 kts | 43° |
| 2026-05-05 15:01 | 42.35230 | -68.64818 | 33004 ft | 516 kts | 43° |
| 2026-05-05 15:02 | 42.40359 | -68.58039 | 33003 ft | 516 kts | 43° |
| 2026-05-05 15:02 | 42.45486 | -68.51249 | 33002 ft | 516 kts | 43° |
| 2026-05-05 15:03 | 42.50602 | -68.44455 | 33005 ft | 515 kts | 43° |
| 2026-05-05 15:03 | 42.55714 | -68.37651 | 32999 ft | 515 kts | 43° |
| 2026-05-05 15:04 | 42.60820 | -68.30838 | 33004 ft | 515 kts | 43° |
| 2026-05-05 15:04 | 42.65890 | -68.24058 | 33008 ft | 516 kts | 43° |
| 2026-05-05 15:05 | 42.73547 | -68.13783 | 33001 ft | 516 kts | 43° |
| 2026-05-05 15:06 | 42.78641 | -68.06928 | 33002 ft | 515 kts | 43° |
| 2026-05-05 15:06 | 42.83731 | -68.00062 | 33001 ft | 515 kts | 43° |
| 2026-05-05 15:07 | 42.88816 | -67.93185 | 33002 ft | 515 kts | 43° |
| 2026-05-05 15:07 | 42.93893 | -67.86303 | 33001 ft | 514 kts | 43° |
| 2026-05-05 15:08 | 42.98962 | -67.79414 | 33000 ft | 514 kts | 43° |
| 2026-05-05 15:08 | 43.04027 | -67.72513 | 33000 ft | 514 kts | 43° |
| 2026-05-05 15:09 | 43.09085 | -67.65605 | 33002 ft | 513 kts | 43° |
| 2026-05-05 15:09 | 43.14131 | -67.58696 | 33002 ft | 513 kts | 43° |
| 2026-05-05 15:10 | 43.19176 | -67.51772 | 32999 ft | 513 kts | 43° |
| 2026-05-05 15:10 | 43.24216 | -67.44837 | 33000 ft | 513 kts | 43° |
| 2026-05-05 15:11 | 43.29221 | -67.37934 | 32996 ft | 513 kts | 43° |
| 2026-05-05 15:11 | 43.34250 | -67.30979 | 32985 ft | 513 kts | 43° |
| 2026-05-05 15:12 | 43.39274 | -67.24016 | 32989 ft | 513 kts | 43° |
| 2026-05-05 15:12 | 43.44292 | -67.17042 | 32989 ft | 513 kts | 43° |
| 2026-05-05 15:13 | 43.49309 | -67.10052 | 32989 ft | 513 kts | 43° |
| 2026-05-05 15:13 | 43.54317 | -67.03058 | 32990 ft | 513 kts | 43° |
| 2026-05-05 15:14 | 43.58608 | -66.95163 | 32985 ft | 519 kts | 57° |
| 2026-05-05 15:14 | 43.62276 | -66.86599 | 33001 ft | 519 kts | 57° |
| 2026-05-05 15:15 | 43.65965 | -66.78042 | 33001 ft | 518 kts | 57° |
| 2026-05-05 15:15 | 43.69634 | -66.69469 | 33000 ft | 518 kts | 57° |
| 2026-05-05 15:16 | 43.72879 | -66.61874 | 33002 ft | 518 kts | 57° |
| 2026-05-05 15:16 | 43.76540 | -66.53290 | 33001 ft | 518 kts | 57° |
| 2026-05-05 15:17 | 43.80192 | -66.44689 | 33006 ft | 518 kts | 57° |
| 2026-05-05 15:17 | 43.83839 | -66.36082 | 33011 ft | 518 kts | 57° |
| 2026-05-05 15:18 | 43.87477 | -66.27466 | 33014 ft | 518 kts | 57° |
| 2026-05-05 15:18 | 43.91106 | -66.18849 | 33015 ft | 517 kts | 57° |
| 2026-05-05 15:19 | 43.94113 | -66.11686 | 33015 ft | 517 kts | 57° |
| 2026-05-05 15:19 | 43.97728 | -66.03056 | 33015 ft | 517 kts | 57° |
| 2026-05-05 15:20 | 44.01332 | -65.94422 | 33021 ft | 517 kts | 57° |
| 2026-05-05 15:20 | 44.04929 | -65.85779 | 33019 ft | 517 kts | 57° |
| 2026-05-05 15:21 | 44.08522 | -65.77122 | 33019 ft | 517 kts | 57° |
| 2026-05-05 15:21 | 44.12110 | -65.68449 | 33024 ft | 517 kts | 57° |
| 2026-05-05 15:22 | 44.15691 | -65.59767 | 33014 ft | 517 kts | 57° |
| 2026-05-05 15:22 | 44.19244 | -65.51125 | 33011 ft | 518 kts | 57° |
| 2026-05-05 15:23 | 44.22817 | -65.42410 | 33009 ft | 518 kts | 57° |
| 2026-05-05 15:23 | 44.26383 | -65.33684 | 33014 ft | 518 kts | 57° |
| 2026-05-05 15:24 | 44.29942 | -65.24949 | 33007 ft | 518 kts | 57° |
| 2026-05-05 15:24 | 44.33499 | -65.16191 | 33005 ft | 518 kts | 57° |
| 2026-05-05 15:25 | 44.37046 | -65.07432 | 33008 ft | 518 kts | 57° |
| 2026-05-05 15:25 | 44.40587 | -64.98660 | 32997 ft | 518 kts | 57° |
| 2026-05-05 15:26 | 44.44122 | -64.89875 | 32994 ft | 518 kts | 57° |
| 2026-05-05 15:26 | 44.47647 | -64.81088 | 32988 ft | 518 kts | 57° |
| 2026-05-05 15:27 | 44.51169 | -64.72282 | 32983 ft | 518 kts | 57° |
| 2026-05-05 15:27 | 44.54680 | -64.63475 | 32976 ft | 518 kts | 57° |
| 2026-05-05 15:28 | 44.58188 | -64.54647 | 32974 ft | 518 kts | 57° |
| 2026-05-05 15:28 | 44.61664 | -64.45873 | 32971 ft | 518 kts | 57° |
| 2026-05-05 15:29 | 44.65155 | -64.37033 | 32976 ft | 517 kts | 57° |
| 2026-05-05 15:29 | 44.68494 | -64.28554 | 32978 ft | 517 kts | 57° |
| 2026-05-05 15:30 | 44.71973 | -64.19688 | 32979 ft | 518 kts | 57° |
| 2026-05-05 15:30 | 44.75347 | -64.11065 | 32987 ft | 518 kts | 57° |
| 2026-05-05 15:31 | 44.78815 | -64.02174 | 32991 ft | 518 kts | 57° |
| 2026-05-05 15:31 | 44.82274 | -63.93278 | 32994 ft | 518 kts | 57° |
| 2026-05-05 15:32 | 44.85728 | -63.84365 | 32991 ft | 518 kts | 57° |
| 2026-05-05 15:32 | 44.89176 | -63.75439 | 32997 ft | 518 kts | 57° |
| 2026-05-05 15:33 | 44.92615 | -63.66506 | 32997 ft | 518 kts | 57° |
| 2026-05-05 15:33 | 44.96042 | -63.57578 | 33000 ft | 517 kts | 57° |
| 2026-05-05 15:34 | 44.99441 | -63.48694 | 32999 ft | 518 kts | 57° |
| 2026-05-05 15:34 | 45.02856 | -63.39740 | 33000 ft | 518 kts | 57° |
| 2026-05-05 15:35 | 45.06268 | -63.30764 | 32995 ft | 518 kts | 57° |
| 2026-05-05 15:35 | 45.09670 | -63.21786 | 32996 ft | 518 kts | 57° |
| 2026-05-05 15:36 | 45.13065 | -63.12795 | 32990 ft | 517 kts | 57° |
| 2026-05-05 15:36 | 45.16450 | -63.03802 | 32994 ft | 518 kts | 57° |
| 2026-05-05 15:37 | 45.19832 | -62.94788 | 32991 ft | 518 kts | 57° |
| 2026-05-05 15:37 | 45.23206 | -62.85766 | 32989 ft | 518 kts | 57° |
| 2026-05-05 15:38 | 45.26575 | -62.76726 | 32986 ft | 518 kts | 57° |
| 2026-05-05 15:38 | 45.29940 | -62.67669 | 32967 ft | 519 kts | 57° |
| 2026-05-05 15:39 | 45.33276 | -62.58658 | 32973 ft | 519 kts | 57° |
| 2026-05-05 15:39 | 45.36629 | -62.49574 | 32975 ft | 519 kts | 57° |
| 2026-05-05 15:40 | 45.39978 | -62.40466 | 32975 ft | 519 kts | 57° |
| 2026-05-05 15:40 | 45.43320 | -62.31351 | 32970 ft | 520 kts | 57° |
| 2026-05-05 15:41 | 45.46661 | -62.22208 | 32966 ft | 520 kts | 57° |
| 2026-05-05 15:41 | 45.49993 | -62.13055 | 32969 ft | 521 kts | 57° |
| 2026-05-05 15:42 | 45.53323 | -62.03878 | 32968 ft | 521 kts | 57° |
| 2026-05-05 15:42 | 45.56647 | -61.94687 | 32961 ft | 522 kts | 57° |
| 2026-05-05 15:43 | 45.59968 | -61.85474 | 32961 ft | 522 kts | 57° |
| 2026-05-05 15:43 | 45.63284 | -61.76244 | 32962 ft | 522 kts | 57° |
| 2026-05-05 15:44 | 45.66591 | -61.67004 | 32960 ft | 522 kts | 57° |
| 2026-05-05 15:44 | 45.69892 | -61.57751 | 32958 ft | 522 kts | 57° |
| 2026-05-05 15:45 | 45.73180 | -61.48502 | 32965 ft | 521 kts | 57° |
| 2026-05-05 15:45 | 45.76462 | -61.39239 | 32959 ft | 521 kts | 57° |
| 2026-05-05 15:46 | 45.79710 | -61.30038 | 32959 ft | 521 kts | 57° |
| 2026-05-05 15:46 | 45.82974 | -61.20761 | 32958 ft | 521 kts | 57° |
| 2026-05-05 15:47 | 45.86226 | -61.11487 | 32954 ft | 520 kts | 57° |
| 2026-05-05 15:47 | 45.89473 | -61.02196 | 32956 ft | 520 kts | 57° |
| 2026-05-05 15:48 | 45.92707 | -60.92908 | 32952 ft | 520 kts | 57° |
| 2026-05-05 15:48 | 45.95934 | -60.83606 | 32952 ft | 520 kts | 57° |
| 2026-05-05 15:49 | 45.99154 | -60.74296 | 32954 ft | 520 kts | 57° |
| 2026-05-05 15:49 | 46.02367 | -60.64970 | 32962 ft | 520 kts | 57° |
| 2026-05-05 15:50 | 46.05572 | -60.55636 | 32961 ft | 520 kts | 57° |
| 2026-05-05 15:50 | 46.08769 | -60.46289 | 32961 ft | 520 kts | 57° |
| 2026-05-05 15:51 | 46.11955 | -60.36945 | 32956 ft | 520 kts | 57° |
| 2026-05-05 15:51 | 46.15118 | -60.27631 | 32961 ft | 520 kts | 57° |
| 2026-05-05 15:52 | 46.18295 | -60.18250 | 32958 ft | 521 kts | 57° |
| 2026-05-05 15:52 | 46.21466 | -60.08846 | 32950 ft | 521 kts | 57° |
| 2026-05-05 15:53 | 46.24627 | -59.99440 | 32956 ft | 521 kts | 57° |
| 2026-05-05 15:53 | 46.27785 | -59.90012 | 32952 ft | 521 kts | 58° |
| 2026-05-05 15:54 | 46.30936 | -59.80568 | 32958 ft | 521 kts | 58° |
| 2026-05-05 15:54 | 46.34078 | -59.71117 | 32963 ft | 522 kts | 58° |
| 2026-05-05 15:55 | 46.37219 | -59.61635 | 32975 ft | 522 kts | 58° |
| 2026-05-05 15:55 | 46.40351 | -59.52148 | 32974 ft | 523 kts | 58° |
| 2026-05-05 15:56 | 46.43457 | -59.42701 | 32972 ft | 523 kts | 58° |
| 2026-05-05 15:56 | 46.46581 | -59.33166 | 32980 ft | 524 kts | 58° |
| 2026-05-05 15:57 | 46.49702 | -59.23607 | 32985 ft | 524 kts | 58° |
| 2026-05-05 15:57 | 46.52815 | -59.14034 | 32989 ft | 525 kts | 58° |
| 2026-05-05 15:58 | 46.55926 | -59.04434 | 32990 ft | 525 kts | 58° |
| 2026-05-05 15:58 | 46.59030 | -58.94816 | 32995 ft | 526 kts | 58° |
| 2026-05-05 15:59 | 46.62133 | -58.85169 | 32990 ft | 527 kts | 57° |
| 2026-05-05 15:59 | 46.65229 | -58.75506 | 32995 ft | 527 kts | 57° |
| 2026-05-05 16:00 | 46.68321 | -58.65817 | 33000 ft | 528 kts | 57° |
| 2026-05-05 16:00 | 46.69880 | -58.60953 | 33625 ft | 534 kts | 65° |
| 2026-05-05 16:00 | 46.71448 | -58.55986 | 33483 ft | 546 kts | 65° |
| 2026-05-05 16:00 | 46.73021 | -58.51001 | 33372 ft | 550 kts | 65° |
| 2026-05-05 16:01 | 46.74614 | -58.45947 | 32666 ft | 543 kts | 58° |
| 2026-05-05 16:01 | 46.76169 | -58.41030 | 32803 ft | 526 kts | 57° |
| 2026-05-05 16:01 | 46.77698 | -58.36214 | 32966 ft | 524 kts | 57° |
| 2026-05-05 16:02 | 46.80761 | -58.26477 | 33011 ft | 529 kts | 58° |
| 2026-05-05 16:02 | 46.83823 | -58.16682 | 33006 ft | 531 kts | 58° |
| 2026-05-05 16:03 | 46.86890 | -58.06860 | 33016 ft | 531 kts | 58° |
| 2026-05-05 16:03 | 46.89946 | -57.97015 | 32993 ft | 532 kts | 58° |
| 2026-05-05 16:04 | 46.92996 | -57.87167 | 33013 ft | 531 kts | 58° |
| 2026-05-05 16:04 | 46.96037 | -57.77299 | 33004 ft | 532 kts | 58° |
| 2026-05-05 16:05 | 46.99071 | -57.67419 | 33013 ft | 532 kts | 58° |
| 2026-05-05 16:05 | 47.02080 | -57.57579 | 33000 ft | 532 kts | 59° |
| 2026-05-05 16:06 | 47.05100 | -57.47666 | 33014 ft | 533 kts | 59° |
| 2026-05-05 16:06 | 47.08117 | -57.37722 | 33004 ft | 534 kts | 59° |
| 2026-05-05 16:07 | 47.11126 | -57.27767 | 33012 ft | 534 kts | 59° |
| 2026-05-05 16:07 | 47.14133 | -57.17777 | 33004 ft | 535 kts | 60° |
| 2026-05-05 16:08 | 47.17130 | -57.07779 | 33013 ft | 535 kts | 60° |
| 2026-05-05 16:08 | 47.20127 | -56.97744 | 32992 ft | 536 kts | 61° |
| 2026-05-05 16:09 | 47.23111 | -56.87709 | 32995 ft | 536 kts | 61° |
| 2026-05-05 16:09 | 47.26092 | -56.77643 | 32979 ft | 537 kts | 62° |
| 2026-05-05 16:10 | 47.29043 | -56.67637 | 32976 ft | 536 kts | 62° |
| 2026-05-05 16:10 | 47.32012 | -56.57534 | 32953 ft | 537 kts | 62° |
| 2026-05-05 16:11 | 47.34971 | -56.47418 | 32939 ft | 538 kts | 62° |
| 2026-05-05 16:12 | 47.40870 | -56.27127 | 32935 ft | 539 kts | 63° |
| 2026-05-05 16:13 | 47.48217 | -56.01621 | 32896 ft | 540 kts | 64° |
| 2026-05-05 16:13 | 47.51141 | -55.91392 | 32888 ft | 540 kts | 64° |
| 2026-05-05 16:14 | 47.56946 | -55.70959 | 32890 ft | 541 kts | 64° |
| 2026-05-05 16:15 | 47.62265 | -55.52087 | 32899 ft | 540 kts | 65° |
| 2026-05-05 16:16 | 47.67995 | -55.31585 | 32920 ft | 540 kts | 65° |
| 2026-05-05 16:17 | 47.72279 | -55.16139 | 32916 ft | 539 kts | 66° |
| 2026-05-05 16:18 | 47.76541 | -55.00677 | 32938 ft | 539 kts | 66° |
| 2026-05-05 16:19 | 47.80781 | -54.85191 | 32952 ft | 539 kts | 66° |
| 2026-05-05 16:19 | 47.85005 | -54.69661 | 32948 ft | 540 kts | 67° |
| 2026-05-05 16:20 | 47.90615 | -54.48879 | 32932 ft | 541 kts | 67° |
| 2026-05-05 16:22 | 47.97566 | -54.22870 | 32913 ft | 541 kts | 68° |
| 2026-05-05 16:23 | 48.03099 | -54.01955 | 32896 ft | 542 kts | 68° |
| 2026-05-05 16:23 | 48.07231 | -53.86213 | 32892 ft | 542 kts | 69° |
| 2026-05-05 16:24 | 48.09971 | -53.75716 | 32890 ft | 542 kts | 69° |
| 2026-05-05 16:25 | 48.14057 | -53.59970 | 32893 ft | 540 kts | 69° |
| 2026-05-05 16:25 | 48.18098 | -53.44290 | 32878 ft | 540 kts | 69° |
| 2026-05-05 16:26 | 48.23483 | -53.23228 | 32878 ft | 540 kts | 70° |
| 2026-05-05 16:27 | 48.26160 | -53.12686 | 32888 ft | 541 kts | 70° |
| 2026-05-05 16:27 | 48.27491 | -53.07424 | 33185 ft | 539 kts | 70° |
| 2026-05-05 16:27 | 48.28820 | -53.02156 | 33538 ft | 541 kts | 70° |
| 2026-05-05 16:28 | 48.30153 | -52.96865 | 33875 ft | 543 kts | 70° |
| 2026-05-05 16:28 | 48.31489 | -52.91549 | 34174 ft | 544 kts | 70° |
| 2026-05-05 16:28 | 48.32824 | -52.86223 | 34424 ft | 545 kts | 70° |
| 2026-05-05 16:28 | 48.34154 | -52.80904 | 34622 ft | 543 kts | 71° |
| 2026-05-05 16:29 | 48.35482 | -52.75578 | 34812 ft | 544 kts | 71° |
| 2026-05-05 16:29 | 48.36807 | -52.70258 | 34883 ft | 544 kts | 71° |
| 2026-05-05 16:29 | 48.39423 | -52.59709 | 34891 ft | 540 kts | 71° |
| 2026-05-05 16:30 | 48.42038 | -52.49112 | 34895 ft | 540 kts | 71° |
| 2026-05-05 16:30 | 48.44646 | -52.38499 | 34897 ft | 540 kts | 71° |
| 2026-05-05 16:31 | 48.47240 | -52.27888 | 34901 ft | 540 kts | 72° |
| 2026-05-05 16:31 | 48.49825 | -52.17262 | 34901 ft | 540 kts | 72° |
| 2026-05-05 16:32 | 48.52400 | -52.06631 | 34903 ft | 540 kts | 72° |
| 2026-05-05 16:32 | 48.54965 | -51.95985 | 34900 ft | 540 kts | 72° |
| 2026-05-05 16:33 | 48.57517 | -51.85346 | 34906 ft | 539 kts | 72° |
| 2026-05-05 16:33 | 48.60058 | -51.74694 | 34908 ft | 539 kts | 72° |
| 2026-05-05 16:34 | 48.62588 | -51.64045 | 34905 ft | 539 kts | 73° |
| 2026-05-05 16:34 | 48.65109 | -51.53378 | 34918 ft | 538 kts | 73° |
| 2026-05-05 16:35 | 48.67615 | -51.42722 | 34917 ft | 538 kts | 73° |
| 2026-05-05 16:35 | 48.70093 | -51.32133 | 34913 ft | 537 kts | 73° |
| 2026-05-05 16:36 | 48.72576 | -51.21471 | 34918 ft | 537 kts | 74° |
| 2026-05-05 16:36 | 48.75049 | -51.10798 | 34922 ft | 536 kts | 74° |
| 2026-05-05 16:37 | 48.77510 | -51.00128 | 34927 ft | 536 kts | 75° |
| 2026-05-05 16:37 | 48.79959 | -50.89452 | 34927 ft | 536 kts | 75° |
| 2026-05-05 16:38 | 48.82396 | -50.78775 | 34938 ft | 535 kts | 75° |
| 2026-05-05 16:38 | 48.84820 | -50.68102 | 34933 ft | 535 kts | 75° |
| 2026-05-05 16:39 | 48.87232 | -50.57432 | 34934 ft | 534 kts | 76° |
| 2026-05-05 16:39 | 48.89614 | -50.46837 | 34930 ft | 533 kts | 76° |
| 2026-05-05 16:40 | 48.92001 | -50.36170 | 34941 ft | 532 kts | 76° |
| 2026-05-05 16:40 | 48.94371 | -50.25517 | 34941 ft | 531 kts | 76° |
| 2026-05-05 16:41 | 48.96731 | -50.14867 | 34942 ft | 531 kts | 77° |
| 2026-05-05 16:41 | 48.99074 | -50.04230 | 34947 ft | 530 kts | 77° |
| 2026-05-05 16:42 | 49.01611 | -49.93676 | 34958 ft | 531 kts | 75° |
| 2026-05-05 16:42 | 49.04235 | -49.83174 | 34950 ft | 530 kts | 75° |
| 2026-05-05 16:43 | 49.06871 | -49.72684 | 34949 ft | 529 kts | 75° |
| 2026-05-05 16:43 | 49.09477 | -49.62207 | 34948 ft | 528 kts | 75° |
| 2026-05-05 16:44 | 49.12075 | -49.51743 | 34960 ft | 526 kts | 76° |
| 2026-05-05 16:44 | 49.14653 | -49.41293 | 34958 ft | 526 kts | 76° |
| 2026-05-05 16:45 | 49.17204 | -49.30914 | 34958 ft | 525 kts | 76° |
| 2026-05-05 16:45 | 49.19757 | -49.20475 | 34961 ft | 524 kts | 76° |
| 2026-05-05 16:46 | 49.22298 | -49.10033 | 34961 ft | 523 kts | 76° |
| 2026-05-05 16:46 | 49.24825 | -48.99602 | 34962 ft | 523 kts | 76° |
| 2026-05-05 16:47 | 49.27343 | -48.89163 | 34974 ft | 522 kts | 77° |
| 2026-05-05 16:47 | 49.29844 | -48.78738 | 34957 ft | 522 kts | 77° |
| 2026-05-05 16:48 | 49.32337 | -48.68305 | 34970 ft | 521 kts | 77° |
| 2026-05-05 16:48 | 49.34815 | -48.57875 | 34974 ft | 520 kts | 77° |
| 2026-05-05 16:49 | 49.37283 | -48.47444 | 34969 ft | 519 kts | 77° |
| 2026-05-05 16:49 | 49.39734 | -48.37028 | 34975 ft | 519 kts | 77° |
| 2026-05-05 16:50 | 49.42176 | -48.26611 | 34971 ft | 518 kts | 78° |
| 2026-05-05 16:50 | 49.44601 | -48.16205 | 34973 ft | 517 kts | 78° |
| 2026-05-05 16:51 | 49.47019 | -48.05786 | 34979 ft | 517 kts | 78° |
| 2026-05-05 16:51 | 49.49422 | -47.95375 | 34982 ft | 517 kts | 78° |
| 2026-05-05 16:52 | 49.51817 | -47.84957 | 34980 ft | 516 kts | 78° |
| 2026-05-05 16:52 | 49.54197 | -47.74542 | 34986 ft | 515 kts | 78° |
| 2026-05-05 16:53 | 49.56566 | -47.64134 | 34986 ft | 514 kts | 78° |
| 2026-05-05 16:53 | 49.58921 | -47.53730 | 34984 ft | 514 kts | 78° |
| 2026-05-05 16:54 | 49.61247 | -47.43411 | 34990 ft | 512 kts | 78° |
| 2026-05-05 16:54 | 49.63574 | -47.33025 | 34990 ft | 512 kts | 79° |
| 2026-05-05 16:55 | 49.65892 | -47.22643 | 34988 ft | 511 kts | 79° |
| 2026-05-05 16:55 | 49.68194 | -47.12267 | 34991 ft | 511 kts | 79° |
| 2026-05-05 16:56 | 49.70487 | -47.01888 | 35001 ft | 510 kts | 79° |
| 2026-05-05 16:56 | 49.72770 | -46.91501 | 35003 ft | 510 kts | 79° |
| 2026-05-05 16:57 | 49.75038 | -46.81133 | 34992 ft | 509 kts | 79° |
| 2026-05-05 16:57 | 49.77295 | -46.70754 | 35002 ft | 509 kts | 79° |
| 2026-05-05 16:58 | 49.79546 | -46.60359 | 35002 ft | 510 kts | 79° |
| 2026-05-05 16:58 | 49.81790 | -46.49939 | 35005 ft | 510 kts | 79° |
| 2026-05-05 16:59 | 49.84024 | -46.39518 | 35005 ft | 510 kts | 79° |
| 2026-05-05 16:59 | 49.86249 | -46.29075 | 35010 ft | 511 kts | 79° |
| 2026-05-05 17:00 | 49.88468 | -46.18618 | 35019 ft | 509 kts | 79° |
| 2026-05-05 17:00 | 49.90678 | -46.08145 | 35016 ft | 512 kts | 78° |
| 2026-05-05 17:01 | 49.92884 | -45.97632 | 35026 ft | 513 kts | 78° |
| 2026-05-05 17:01 | 49.95076 | -45.87141 | 35024 ft | 515 kts | 78° |
| 2026-05-05 17:02 | 49.97277 | -45.76544 | 35033 ft | 517 kts | 78° |
| 2026-05-05 17:02 | 49.99476 | -45.65903 | 35031 ft | 517 kts | 78° |
| 2026-05-05 17:03 | 50.01669 | -45.55230 | 35040 ft | 520 kts | 78° |
| 2026-05-05 17:03 | 50.03864 | -45.44497 | 35040 ft | 522 kts | 78° |
| 2026-05-05 17:04 | 50.06054 | -45.33722 | 35047 ft | 524 kts | 78° |
| 2026-05-05 17:04 | 50.08246 | -45.22881 | 35041 ft | 526 kts | 77° |
| 2026-05-05 17:05 | 50.10434 | -45.12001 | 35053 ft | 529 kts | 77° |
| 2026-05-05 17:05 | 50.12609 | -45.01128 | 35051 ft | 530 kts | 77° |
| 2026-05-05 17:06 | 50.14792 | -44.90148 | 35067 ft | 531 kts | 77° |
| 2026-05-05 17:06 | 50.16972 | -44.79123 | 35066 ft | 532 kts | 77° |
| 2026-05-05 17:07 | 50.19144 | -44.68073 | 35068 ft | 534 kts | 77° |
| 2026-05-05 17:07 | 50.21313 | -44.56978 | 35069 ft | 535 kts | 77° |
| 2026-05-05 17:08 | 50.23472 | -44.45865 | 35082 ft | 536 kts | 77° |
| 2026-05-05 17:08 | 50.25626 | -44.34721 | 35082 ft | 536 kts | 77° |
| 2026-05-05 17:09 | 50.27772 | -44.23546 | 35087 ft | 537 kts | 77° |
| 2026-05-05 17:09 | 50.29907 | -44.12363 | 35082 ft | 537 kts | 77° |
| 2026-05-05 17:10 | 50.31677 | -44.03040 | 35094 ft | 538 kts | 77° |
| 2026-05-05 17:10 | 50.33799 | -43.91808 | 35096 ft | 539 kts | 76° |
| 2026-05-05 17:11 | 50.35914 | -43.80540 | 35099 ft | 540 kts | 76° |
| 2026-05-05 17:11 | 50.38022 | -43.69246 | 35102 ft | 540 kts | 76° |
| 2026-05-05 17:12 | 50.40118 | -43.57946 | 35113 ft | 541 kts | 76° |
| 2026-05-05 17:12 | 50.42211 | -43.46592 | 35113 ft | 542 kts | 76° |
| 2026-05-05 17:13 | 50.44292 | -43.35234 | 35107 ft | 542 kts | 76° |
| 2026-05-05 17:13 | 50.46362 | -43.23865 | 35106 ft | 542 kts | 76° |
| 2026-05-05 17:14 | 50.48419 | -43.12493 | 35120 ft | 542 kts | 76° |
| 2026-05-05 17:14 | 50.50453 | -43.01181 | 35121 ft | 542 kts | 76° |
| 2026-05-05 17:15 | 50.52489 | -42.89787 | 35122 ft | 542 kts | 76° |
| 2026-05-05 17:15 | 50.54515 | -42.78376 | 35130 ft | 542 kts | 76° |
| 2026-05-05 17:16 | 50.56531 | -42.66950 | 35132 ft | 543 kts | 76° |
| 2026-05-05 17:16 | 50.58537 | -42.55507 | 35132 ft | 543 kts | 76° |
| 2026-05-05 17:17 | 50.60532 | -42.44050 | 35137 ft | 543 kts | 76° |
| 2026-05-05 17:17 | 50.62516 | -42.32582 | 35140 ft | 543 kts | 76° |
| 2026-05-05 17:18 | 50.64488 | -42.21114 | 35143 ft | 543 kts | 76° |
| 2026-05-05 17:18 | 50.66450 | -42.09623 | 35149 ft | 543 kts | 76° |
| 2026-05-05 17:19 | 50.68401 | -41.98122 | 35148 ft | 544 kts | 76° |
| 2026-05-05 17:19 | 50.70341 | -41.86609 | 35145 ft | 543 kts | 76° |
| 2026-05-05 17:20 | 50.72270 | -41.75093 | 35153 ft | 543 kts | 76° |
| 2026-05-05 17:20 | 50.74187 | -41.63563 | 35156 ft | 543 kts | 76° |
| 2026-05-05 17:21 | 50.76093 | -41.52021 | 35159 ft | 543 kts | 76° |
| 2026-05-05 17:22 | 50.78915 | -41.34790 | 35160 ft | 543 kts | 76° |
| 2026-05-05 17:22 | 50.80791 | -41.23236 | 35162 ft | 543 kts | 76° |
| 2026-05-05 17:23 | 50.82657 | -41.11662 | 35166 ft | 543 kts | 76° |
| 2026-05-05 17:23 | 50.84511 | -41.00086 | 35167 ft | 543 kts | 76° |
| 2026-05-05 17:24 | 50.86360 | -40.88480 | 35542 ft | 546 kts | 79° |
| 2026-05-05 17:24 | 50.87276 | -40.82672 | 35416 ft | 541 kts | 79° |
| 2026-05-05 17:24 | 50.88183 | -40.76911 | 35292 ft | 539 kts | 79° |
| 2026-05-05 17:24 | 50.89089 | -40.71142 | 35177 ft | 539 kts | 79° |
| 2026-05-05 17:25 | 50.89991 | -40.65386 | 35170 ft | 539 kts | 79° |
| 2026-05-05 17:25 | 50.91790 | -40.53826 | 35179 ft | 541 kts | 79° |
| 2026-05-05 17:26 | 50.93579 | -40.42257 | 35176 ft | 540 kts | 79° |
| 2026-05-05 17:26 | 50.95354 | -40.30687 | 35174 ft | 540 kts | 79° |
| 2026-05-05 17:27 | 50.97106 | -40.19192 | 35169 ft | 539 kts | 79° |
| 2026-05-05 17:27 | 50.98855 | -40.07629 | 35173 ft | 539 kts | 79° |
| 2026-05-05 17:28 | 51.00950 | -39.96199 | 35197 ft | 543 kts | 70° |
| 2026-05-05 17:28 | 51.03771 | -39.85074 | 35186 ft | 543 kts | 70° |
| 2026-05-05 17:29 | 51.06558 | -39.73927 | 35186 ft | 542 kts | 71° |
| 2026-05-05 17:29 | 51.09339 | -39.62781 | 35181 ft | 542 kts | 71° |
| 2026-05-05 17:30 | 51.12105 | -39.51636 | 35178 ft | 541 kts | 71° |
| 2026-05-05 17:30 | 51.14858 | -39.40481 | 35177 ft | 541 kts | 71° |
| 2026-05-05 17:31 | 51.17583 | -39.29396 | 35173 ft | 541 kts | 71° |
| 2026-05-05 17:31 | 51.20311 | -39.18229 | 35177 ft | 541 kts | 71° |
| 2026-05-05 17:32 | 51.23030 | -39.07049 | 35186 ft | 540 kts | 71° |
| 2026-05-05 17:32 | 51.25736 | -38.95863 | 35169 ft | 540 kts | 71° |
| 2026-05-05 17:33 | 51.28426 | -38.84691 | 35177 ft | 539 kts | 71° |
| 2026-05-05 17:33 | 51.31103 | -38.73507 | 35171 ft | 538 kts | 71° |
| 2026-05-05 17:34 | 51.33766 | -38.62331 | 35177 ft | 538 kts | 71° |
| 2026-05-05 17:34 | 51.36416 | -38.51151 | 35180 ft | 537 kts | 71° |
| 2026-05-05 17:35 | 51.39051 | -38.39976 | 35179 ft | 536 kts | 71° |
| 2026-05-05 17:35 | 51.41671 | -38.28806 | 35177 ft | 535 kts | 71° |
| 2026-05-05 17:36 | 51.44275 | -38.17647 | 35180 ft | 534 kts | 71° |
| 2026-05-05 17:36 | 51.46865 | -38.06489 | 35177 ft | 533 kts | 72° |
| 2026-05-05 17:37 | 51.49438 | -37.95346 | 35177 ft | 532 kts | 72° |
| 2026-05-05 17:37 | 51.51980 | -37.84280 | 35180 ft | 532 kts | 72° |
| 2026-05-05 17:38 | 51.54527 | -37.73136 | 35175 ft | 531 kts | 72° |
| 2026-05-05 17:38 | 51.57061 | -37.61987 | 35176 ft | 531 kts | 72° |
| 2026-05-05 17:39 | 51.59583 | -37.50836 | 35176 ft | 531 kts | 72° |
| 2026-05-05 17:39 | 51.62093 | -37.39673 | 35185 ft | 531 kts | 72° |
| 2026-05-05 17:40 | 51.64592 | -37.28506 | 35181 ft | 530 kts | 72° |
| 2026-05-05 17:40 | 51.67077 | -37.17340 | 35173 ft | 529 kts | 72° |
| 2026-05-05 17:41 | 51.69544 | -37.06191 | 35174 ft | 528 kts | 72° |
| 2026-05-05 17:41 | 51.71998 | -36.95043 | 35169 ft | 527 kts | 72° |
| 2026-05-05 17:42 | 51.74441 | -36.83889 | 35167 ft | 527 kts | 73° |
| 2026-05-05 17:42 | 51.76869 | -36.72740 | 35168 ft | 526 kts | 73° |
| 2026-05-05 17:43 | 51.79287 | -36.61580 | 35169 ft | 526 kts | 73° |
| 2026-05-05 17:43 | 51.81690 | -36.50424 | 35169 ft | 526 kts | 73° |
| 2026-05-05 17:44 | 51.84066 | -36.39334 | 35170 ft | 525 kts | 73° |
| 2026-05-05 17:44 | 51.86443 | -36.28178 | 35168 ft | 524 kts | 73° |
| 2026-05-05 17:45 | 51.88805 | -36.17031 | 35168 ft | 523 kts | 73° |
| 2026-05-05 17:45 | 51.91151 | -36.05900 | 35168 ft | 522 kts | 73° |
| 2026-05-05 17:46 | 51.93485 | -35.94766 | 35164 ft | 521 kts | 73° |
| 2026-05-05 17:46 | 51.95803 | -35.83647 | 35159 ft | 521 kts | 73° |
| 2026-05-05 17:47 | 51.98108 | -35.72527 | 35163 ft | 520 kts | 73° |
| 2026-05-05 17:47 | 52.00400 | -35.61407 | 35155 ft | 519 kts | 73° |
| 2026-05-05 17:48 | 52.02664 | -35.50362 | 35158 ft | 519 kts | 74° |
| 2026-05-05 17:48 | 52.04929 | -35.39251 | 35159 ft | 518 kts | 74° |
| 2026-05-05 17:49 | 52.07184 | -35.28126 | 35154 ft | 517 kts | 74° |
| 2026-05-05 17:49 | 52.09422 | -35.17021 | 35152 ft | 517 kts | 74° |
| 2026-05-05 17:50 | 52.11646 | -35.05922 | 35151 ft | 515 kts | 74° |
| 2026-05-05 17:50 | 52.13856 | -34.94833 | 35154 ft | 515 kts | 74° |
| 2026-05-05 17:51 | 52.16054 | -34.83736 | 35150 ft | 514 kts | 75° |
| 2026-05-05 17:51 | 52.18237 | -34.72655 | 35150 ft | 513 kts | 75° |
| 2026-05-05 17:52 | 52.20406 | -34.61581 | 35151 ft | 512 kts | 75° |
| 2026-05-05 17:52 | 52.22545 | -34.50601 | 35153 ft | 511 kts | 75° |
| 2026-05-05 17:53 | 52.24682 | -34.39565 | 35152 ft | 510 kts | 75° |
| 2026-05-05 17:53 | 52.26804 | -34.28538 | 35152 ft | 509 kts | 75° |
| 2026-05-05 17:54 | 52.28913 | -34.17521 | 35153 ft | 508 kts | 75° |
| 2026-05-05 17:54 | 52.31005 | -34.06529 | 35156 ft | 506 kts | 75° |
| 2026-05-05 17:55 | 52.33082 | -33.95549 | 35162 ft | 505 kts | 76° |
| 2026-05-05 17:55 | 52.35142 | -33.84597 | 35170 ft | 503 kts | 76° |
| 2026-05-05 17:56 | 52.37189 | -33.73646 | 35175 ft | 503 kts | 76° |
| 2026-05-05 17:56 | 52.39223 | -33.62705 | 35167 ft | 502 kts | 76° |
| 2026-05-05 17:57 | 52.41243 | -33.51773 | 35173 ft | 501 kts | 76° |
| 2026-05-05 17:57 | 52.43252 | -33.40840 | 35174 ft | 501 kts | 76° |
| 2026-05-05 17:58 | 52.45233 | -33.29993 | 35175 ft | 500 kts | 76° |
| 2026-05-05 17:58 | 52.47216 | -33.19065 | 35176 ft | 500 kts | 76° |
| 2026-05-05 17:59 | 52.49187 | -33.08142 | 35183 ft | 500 kts | 76° |
| 2026-05-05 17:59 | 52.51150 | -32.97200 | 35188 ft | 500 kts | 76° |
| 2026-05-05 18:00 | 52.53103 | -32.86247 | 35190 ft | 500 kts | 76° |
| 2026-05-05 18:00 | 52.55046 | -32.75278 | 35191 ft | 500 kts | 76° |
| 2026-05-05 18:01 | 52.56981 | -32.64296 | 35206 ft | 501 kts | 76° |
| 2026-05-05 18:01 | 52.58910 | -32.53275 | 35205 ft | 501 kts | 76° |
| 2026-05-05 18:02 | 52.60828 | -32.42246 | 35206 ft | 502 kts | 76° |
| 2026-05-05 18:02 | 52.62740 | -32.31187 | 35207 ft | 502 kts | 76° |
| 2026-05-05 18:03 | 52.64641 | -32.20126 | 35208 ft | 502 kts | 76° |
| 2026-05-05 18:03 | 52.66531 | -32.09055 | 35213 ft | 502 kts | 76° |
| 2026-05-05 18:04 | 52.68410 | -31.97980 | 35211 ft | 502 kts | 76° |
| 2026-05-05 18:04 | 52.69962 | -31.88772 | 35213 ft | 502 kts | 76° |
| 2026-05-05 18:05 | 52.72124 | -31.75873 | 35214 ft | 502 kts | 76° |
| 2026-05-05 18:05 | 52.73973 | -31.64764 | 35212 ft | 502 kts | 76° |
| 2026-05-05 18:06 | 52.75512 | -31.55459 | 35218 ft | 502 kts | 76° |
| 2026-05-05 18:06 | 52.77328 | -31.44416 | 35223 ft | 502 kts | 76° |
| 2026-05-05 18:07 | 52.79147 | -31.33282 | 35223 ft | 502 kts | 76° |
| 2026-05-05 18:07 | 52.80957 | -31.22133 | 35223 ft | 503 kts | 75° |
| 2026-05-05 18:08 | 52.82759 | -31.10956 | 35231 ft | 503 kts | 75° |
| 2026-05-05 18:08 | 52.84550 | -30.99770 | 35232 ft | 503 kts | 75° |
| 2026-05-05 18:09 | 52.86330 | -30.88583 | 35232 ft | 503 kts | 75° |
| 2026-05-05 18:09 | 52.88100 | -30.77381 | 35237 ft | 503 kts | 75° |
| 2026-05-05 18:10 | 52.89857 | -30.66187 | 35238 ft | 502 kts | 75° |
| 2026-05-05 18:10 | 52.91602 | -30.54991 | 35240 ft | 502 kts | 75° |
| 2026-05-05 18:11 | 52.93336 | -30.43795 | 35245 ft | 501 kts | 75° |
| 2026-05-05 18:11 | 52.95057 | -30.32597 | 35247 ft | 501 kts | 75° |
| 2026-05-05 18:12 | 52.96753 | -30.21490 | 35251 ft | 500 kts | 75° |
| 2026-05-05 18:12 | 52.98450 | -30.10303 | 35255 ft | 500 kts | 75° |
| 2026-05-05 18:13 | 53.00017 | -29.99071 | 35279 ft | 500 kts | 83° |
| 2026-05-05 18:13 | 53.00526 | -29.87507 | 35269 ft | 502 kts | 85° |
| 2026-05-05 18:14 | 53.00983 | -29.75942 | 35270 ft | 502 kts | 84° |
| 2026-05-05 18:14 | 53.01451 | -29.64353 | 35272 ft | 503 kts | 85° |
| 2026-05-05 18:15 | 53.01890 | -29.52765 | 35272 ft | 503 kts | 85° |
| 2026-05-05 18:15 | 53.02331 | -29.41156 | 35276 ft | 504 kts | 85° |
| 2026-05-05 18:16 | 53.02752 | -29.29547 | 35278 ft | 504 kts | 85° |
| 2026-05-05 18:16 | 53.03168 | -29.17928 | 35278 ft | 503 kts | 85° |
| 2026-05-05 18:17 | 53.03566 | -29.06397 | 35283 ft | 504 kts | 84° |
| 2026-05-05 18:17 | 53.03958 | -28.94781 | 35278 ft | 503 kts | 84° |
| 2026-05-05 18:18 | 53.04337 | -28.83168 | 35280 ft | 504 kts | 84° |
| 2026-05-05 18:18 | 53.04706 | -28.71538 | 35282 ft | 504 kts | 84° |
| 2026-05-05 18:19 | 53.05062 | -28.59916 | 35286 ft | 504 kts | 84° |
| 2026-05-05 18:19 | 53.05408 | -28.48274 | 35282 ft | 504 kts | 84° |
| 2026-05-05 18:20 | 53.05743 | -28.36636 | 35281 ft | 504 kts | 84° |
| 2026-05-05 18:20 | 53.06067 | -28.24979 | 35283 ft | 505 kts | 84° |
| 2026-05-05 18:21 | 53.06379 | -28.13312 | 35284 ft | 505 kts | 84° |
| 2026-05-05 18:21 | 53.06680 | -28.01656 | 35282 ft | 505 kts | 84° |
| 2026-05-05 18:22 | 53.06969 | -27.89990 | 35289 ft | 505 kts | 84° |
| 2026-05-05 18:22 | 53.07245 | -27.78405 | 35288 ft | 505 kts | 84° |
| 2026-05-05 18:23 | 53.07512 | -27.66740 | 35280 ft | 505 kts | 84° |
| 2026-05-05 18:23 | 53.07768 | -27.55077 | 35280 ft | 505 kts | 84° |
| 2026-05-05 18:24 | 53.08011 | -27.43403 | 35281 ft | 505 kts | 84° |
| 2026-05-05 18:24 | 53.08244 | -27.31741 | 35280 ft | 504 kts | 84° |
| 2026-05-05 18:25 | 53.08465 | -27.20080 | 35288 ft | 504 kts | 84° |
| 2026-05-05 18:25 | 53.08674 | -27.08432 | 35283 ft | 504 kts | 84° |
| 2026-05-05 18:26 | 53.08872 | -26.96787 | 35281 ft | 503 kts | 84° |
| 2026-05-05 18:26 | 53.09058 | -26.85160 | 35282 ft | 503 kts | 84° |
| 2026-05-05 18:27 | 53.09233 | -26.73539 | 35285 ft | 502 kts | 84° |
| 2026-05-05 18:27 | 53.09396 | -26.61935 | 35279 ft | 501 kts | 84° |
| 2026-05-05 18:28 | 53.09618 | -26.44638 | 35284 ft | 500 kts | 84° |
| 2026-05-05 18:28 | 53.09753 | -26.33064 | 35277 ft | 500 kts | 84° |
| 2026-05-05 18:29 | 53.09876 | -26.21511 | 35278 ft | 500 kts | 84° |
| 2026-05-05 18:29 | 53.09988 | -26.09947 | 35279 ft | 500 kts | 84° |
| 2026-05-05 18:30 | 53.10089 | -25.98398 | 35282 ft | 498 kts | 84° |
| 2026-05-05 18:30 | 53.10179 | -25.86865 | 35283 ft | 499 kts | 85° |
| 2026-05-05 18:31 | 53.10257 | -25.75338 | 35278 ft | 498 kts | 85° |
| 2026-05-05 18:31 | 53.10324 | -25.63822 | 35279 ft | 497 kts | 85° |
| 2026-05-05 18:32 | 53.10380 | -25.52400 | 35280 ft | 497 kts | 85° |
| 2026-05-05 18:32 | 53.10425 | -25.40906 | 35266 ft | 497 kts | 85° |
| 2026-05-05 18:33 | 53.10458 | -25.29419 | 35277 ft | 497 kts | 85° |
| 2026-05-05 18:33 | 53.10481 | -25.17914 | 35275 ft | 498 kts | 85° |
| 2026-05-05 18:34 | 53.10493 | -25.06397 | 35267 ft | 498 kts | 85° |
| 2026-05-05 18:34 | 53.10494 | -24.94874 | 35276 ft | 498 kts | 85° |
| 2026-05-05 18:35 | 53.10483 | -24.83358 | 35272 ft | 498 kts | 85° |
| 2026-05-05 18:35 | 53.10461 | -24.71860 | 35269 ft | 496 kts | 85° |
| 2026-05-05 18:36 | 53.10429 | -24.60366 | 35272 ft | 496 kts | 85° |
| 2026-05-05 18:36 | 53.10386 | -24.48958 | 35268 ft | 497 kts | 86° |
| 2026-05-05 18:37 | 53.10331 | -24.37446 | 35273 ft | 497 kts | 86° |
| 2026-05-05 18:37 | 53.10265 | -24.25951 | 35271 ft | 497 kts | 86° |
| 2026-05-05 18:38 | 53.10188 | -24.14452 | 35268 ft | 497 kts | 86° |
| 2026-05-05 18:38 | 53.10100 | -24.02942 | 35273 ft | 498 kts | 86° |
| 2026-05-05 18:39 | 53.10001 | -23.91421 | 35261 ft | 498 kts | 86° |
| 2026-05-05 18:39 | 53.09890 | -23.79895 | 35258 ft | 499 kts | 86° |
| 2026-05-05 18:40 | 53.09768 | -23.68353 | 35269 ft | 499 kts | 86° |
| 2026-05-05 18:40 | 53.09636 | -23.56821 | 35253 ft | 499 kts | 87° |
| 2026-05-05 18:41 | 53.09492 | -23.45347 | 35261 ft | 500 kts | 87° |
| 2026-05-05 18:41 | 53.09337 | -23.33789 | 35264 ft | 500 kts | 87° |
| 2026-05-05 18:42 | 53.09170 | -23.22224 | 35258 ft | 500 kts | 87° |
| 2026-05-05 18:42 | 53.08993 | -23.10669 | 35261 ft | 500 kts | 87° |
| 2026-05-05 18:43 | 53.08803 | -22.99092 | 35258 ft | 501 kts | 88° |
| 2026-05-05 18:43 | 53.08603 | -22.87511 | 35260 ft | 501 kts | 88° |
| 2026-05-05 18:44 | 53.08390 | -22.75912 | 35256 ft | 502 kts | 88° |
| 2026-05-05 18:44 | 53.08166 | -22.64301 | 35258 ft | 502 kts | 88° |
| 2026-05-05 18:45 | 53.07933 | -22.52767 | 35257 ft | 503 kts | 88° |
| 2026-05-05 18:45 | 53.07686 | -22.41150 | 35258 ft | 503 kts | 88° |
| 2026-05-05 18:46 | 53.07428 | -22.29519 | 35253 ft | 504 kts | 89° |
| 2026-05-05 18:46 | 53.07158 | -22.17875 | 35248 ft | 504 kts | 89° |
| 2026-05-05 18:47 | 53.06876 | -22.06219 | 35249 ft | 505 kts | 89° |
| 2026-05-05 18:47 | 53.06583 | -21.94545 | 35250 ft | 505 kts | 89° |
| 2026-05-05 18:48 | 53.06278 | -21.82881 | 35246 ft | 506 kts | 89° |
| 2026-05-05 18:48 | 53.05961 | -21.71192 | 35248 ft | 506 kts | 90° |
| 2026-05-05 18:49 | 53.05633 | -21.59500 | 35249 ft | 507 kts | 90° |
| 2026-05-05 18:49 | 53.05295 | -21.47863 | 35250 ft | 507 kts | 90° |
| 2026-05-05 18:50 | 53.05000 | -21.38047 | 35247 ft | 508 kts | 90° |
| 2026-05-05 18:50 | 53.04579 | -21.24429 | 35251 ft | 508 kts | 90° |
| 2026-05-05 18:51 | 53.04203 | -21.12709 | 35249 ft | 508 kts | 90° |
| 2026-05-05 18:51 | 53.03817 | -21.00987 | 35248 ft | 508 kts | 91° |
| 2026-05-05 18:52 | 53.03418 | -20.89275 | 35244 ft | 508 kts | 91° |
| 2026-05-05 18:52 | 53.03008 | -20.77553 | 35240 ft | 508 kts | 91° |
| 2026-05-05 18:53 | 53.02586 | -20.65840 | 35247 ft | 508 kts | 91° |
| 2026-05-05 18:53 | 53.02153 | -20.54121 | 35242 ft | 508 kts | 91° |
| 2026-05-05 18:54 | 53.01709 | -20.42411 | 35242 ft | 509 kts | 91° |
| 2026-05-05 18:54 | 53.01252 | -20.30687 | 35246 ft | 509 kts | 92° |
| 2026-05-05 18:55 | 53.00784 | -20.18966 | 35236 ft | 509 kts | 92° |
| 2026-05-05 18:55 | 53.00303 | -20.07228 | 35234 ft | 509 kts | 92° |
| 2026-05-05 18:56 | 53.00075 | -19.95499 | 35231 ft | 509 kts | 86° |
| 2026-05-05 18:56 | 53.00342 | -19.83762 | 35234 ft | 509 kts | 86° |
| 2026-05-05 18:57 | 53.00551 | -19.72022 | 35228 ft | 509 kts | 86° |
| 2026-05-05 18:57 | 53.00769 | -19.60353 | 35232 ft | 509 kts | 86° |
| 2026-05-05 18:58 | 53.00969 | -19.48597 | 35235 ft | 510 kts | 86° |
| 2026-05-05 18:58 | 53.01159 | -19.36821 | 35232 ft | 510 kts | 87° |
| 2026-05-05 18:59 | 53.01339 | -19.25045 | 35228 ft | 510 kts | 87° |
| 2026-05-05 18:59 | 53.01506 | -19.13250 | 35226 ft | 511 kts | 87° |
| 2026-05-05 19:00 | 53.01662 | -19.01445 | 35217 ft | 512 kts | 87° |
| 2026-05-05 19:00 | 53.01806 | -18.89608 | 35222 ft | 513 kts | 88° |
| 2026-05-05 19:01 | 53.01939 | -18.77762 | 35216 ft | 513 kts | 88° |
| 2026-05-05 19:01 | 53.02060 | -18.65927 | 35216 ft | 513 kts | 88° |
| 2026-05-05 19:02 | 53.02169 | -18.54152 | 35216 ft | 513 kts | 88° |
| 2026-05-05 19:02 | 53.02266 | -18.42310 | 35201 ft | 513 kts | 88° |
| 2026-05-05 19:03 | 53.02352 | -18.30455 | 35200 ft | 513 kts | 88° |
| 2026-05-05 19:03 | 53.02415 | -18.20516 | 35199 ft | 514 kts | 89° |
| 2026-05-05 19:04 | 53.02479 | -18.08738 | 35199 ft | 514 kts | 89° |
| 2026-05-05 19:04 | 53.02531 | -17.96869 | 35199 ft | 514 kts | 89° |
| 2026-05-05 19:05 | 53.02572 | -17.84994 | 35197 ft | 514 kts | 89° |
| 2026-05-05 19:05 | 53.02601 | -17.73106 | 35203 ft | 515 kts | 89° |
| 2026-05-05 19:06 | 53.02618 | -17.61204 | 35198 ft | 515 kts | 89° |
| 2026-05-05 19:06 | 53.02624 | -17.49293 | 35204 ft | 516 kts | 89° |
| 2026-05-05 19:07 | 53.02617 | -17.37370 | 35194 ft | 516 kts | 89° |
| 2026-05-05 19:07 | 53.02598 | -17.25431 | 35193 ft | 517 kts | 90° |
| 2026-05-05 19:08 | 53.02568 | -17.13569 | 35188 ft | 517 kts | 90° |
| 2026-05-05 19:08 | 53.02525 | -17.01628 | 35195 ft | 517 kts | 90° |
| 2026-05-05 19:09 | 53.02472 | -16.89841 | 35185 ft | 517 kts | 90° |
| 2026-05-05 19:09 | 53.02406 | -16.77899 | 35194 ft | 517 kts | 90° |
| 2026-05-05 19:10 | 53.02327 | -16.65957 | 35181 ft | 517 kts | 90° |
| 2026-05-05 19:10 | 53.02238 | -16.54094 | 35190 ft | 517 kts | 90° |
| 2026-05-05 19:11 | 53.02136 | -16.42151 | 35181 ft | 517 kts | 90° |
| 2026-05-05 19:11 | 53.02022 | -16.30203 | 35190 ft | 517 kts | 90° |
| 2026-05-05 19:12 | 53.01896 | -16.18260 | 35180 ft | 517 kts | 91° |
| 2026-05-05 19:12 | 53.01758 | -16.06329 | 35183 ft | 517 kts | 91° |
| 2026-05-05 19:13 | 53.01608 | -15.94391 | 35181 ft | 517 kts | 91° |
| 2026-05-05 19:13 | 53.01446 | -15.82453 | 35184 ft | 517 kts | 91° |
| 2026-05-05 19:14 | 53.01272 | -15.70522 | 35176 ft | 517 kts | 91° |
| 2026-05-05 19:14 | 53.01087 | -15.58584 | 35176 ft | 517 kts | 91° |
| 2026-05-05 19:15 | 53.00889 | -15.46646 | 35173 ft | 517 kts | 91° |
| 2026-05-05 19:15 | 53.00681 | -15.34787 | 35182 ft | 517 kts | 91° |
| 2026-05-05 19:16 | 53.00459 | -15.22845 | 35175 ft | 517 kts | 91° |
| 2026-05-05 19:16 | 53.00226 | -15.10918 | 35174 ft | 517 kts | 91° |
| 2026-05-05 19:17 | 53.00005 | -14.98985 | 35181 ft | 517 kts | 88° |
| 2026-05-05 19:17 | 53.00054 | -14.87058 | 35172 ft | 517 kts | 90° |
| 2026-05-05 19:18 | 53.00075 | -14.75126 | 35172 ft | 517 kts | 89° |
| 2026-05-05 19:18 | 53.00103 | -14.63204 | 35169 ft | 517 kts | 90° |
| 2026-05-05 19:19 | 53.00103 | -14.51273 | 35167 ft | 517 kts | 90° |
| 2026-05-05 19:19 | 53.00104 | -14.39347 | 35167 ft | 517 kts | 90° |
| 2026-05-05 19:20 | 53.00084 | -14.27495 | 35167 ft | 517 kts | 90° |
| 2026-05-05 19:20 | 53.00058 | -14.15557 | 35169 ft | 517 kts | 90° |
| 2026-05-05 19:21 | 53.00016 | -14.03621 | 35166 ft | 517 kts | 90° |
| 2026-05-05 19:21 | 53.00717 | -13.91761 | 35160 ft | 517 kts | 81° |
| 2026-05-05 19:22 | 53.01811 | -13.79973 | 35159 ft | 517 kts | 81° |
| 2026-05-05 19:22 | 53.02827 | -13.68153 | 35164 ft | 517 kts | 81° |
| 2026-05-05 19:23 | 53.03872 | -13.56336 | 35163 ft | 517 kts | 81° |
| 2026-05-05 19:23 | 53.04880 | -13.44525 | 35162 ft | 516 kts | 81° |
| 2026-05-05 19:24 | 53.05890 | -13.32704 | 35162 ft | 517 kts | 81° |
| 2026-05-05 19:24 | 53.06881 | -13.20877 | 35165 ft | 516 kts | 82° |
| 2026-05-05 19:25 | 53.07858 | -13.09124 | 35163 ft | 517 kts | 82° |
| 2026-05-05 19:25 | 53.08827 | -12.97282 | 35155 ft | 517 kts | 82° |
| 2026-05-05 19:26 | 53.09787 | -12.85435 | 35153 ft | 517 kts | 82° |
| 2026-05-05 19:26 | 53.10733 | -12.73586 | 35152 ft | 517 kts | 82° |
| 2026-05-05 19:27 | 53.11669 | -12.61725 | 35151 ft | 517 kts | 82° |
| 2026-05-05 19:27 | 53.12592 | -12.49863 | 35147 ft | 517 kts | 82° |
| 2026-05-05 19:28 | 53.13504 | -12.37994 | 35153 ft | 517 kts | 82° |
| 2026-05-05 19:28 | 53.14404 | -12.26115 | 35146 ft | 517 kts | 82° |
| 2026-05-05 19:29 | 53.15293 | -12.14233 | 35154 ft | 517 kts | 82° |
| 2026-05-05 19:29 | 53.16170 | -12.02333 | 35150 ft | 517 kts | 82° |
| 2026-05-05 19:30 | 53.17029 | -11.90525 | 35143 ft | 517 kts | 83° |
| 2026-05-05 19:30 | 53.17883 | -11.78614 | 35141 ft | 517 kts | 83° |
| 2026-05-05 19:31 | 53.18724 | -11.66712 | 35138 ft | 517 kts | 83° |
| 2026-05-05 19:31 | 53.19554 | -11.54792 | 35138 ft | 517 kts | 83° |
| 2026-05-05 19:32 | 53.20373 | -11.42865 | 35139 ft | 517 kts | 83° |
| 2026-05-05 19:32 | 53.21178 | -11.30945 | 35132 ft | 518 kts | 83° |
| 2026-05-05 19:33 | 53.21973 | -11.19007 | 35134 ft | 518 kts | 83° |
| 2026-05-05 19:33 | 53.22756 | -11.07060 | 35125 ft | 518 kts | 83° |
| 2026-05-05 19:34 | 53.23522 | -10.95199 | 35124 ft | 518 kts | 83° |
| 2026-05-05 19:35 | 53.24656 | -10.77270 | 35120 ft | 518 kts | 83° |
| 2026-05-05 19:35 | 53.25396 | -10.65321 | 35122 ft | 517 kts | 83° |
| 2026-05-05 19:36 | 53.26125 | -10.53370 | 35119 ft | 517 kts | 84° |
| 2026-05-05 19:36 | 53.26841 | -10.41424 | 35119 ft | 517 kts | 84° |
| 2026-05-05 19:37 | 53.27545 | -10.29474 | 35113 ft | 517 kts | 84° |
| 2026-05-05 19:37 | 53.28236 | -10.17532 | 35107 ft | 516 kts | 84° |
| 2026-05-05 19:38 | 53.28916 | -10.05587 | 35105 ft | 516 kts | 84° |
| 2026-05-05 19:38 | 53.29578 | -9.93732 | 35105 ft | 516 kts | 84° |
| 2026-05-05 19:39 | 53.30233 | -9.81796 | 35104 ft | 515 kts | 84° |
| 2026-05-05 19:39 | 53.30875 | -9.69864 | 35102 ft | 515 kts | 84° |
| 2026-05-05 19:40 | 53.31506 | -9.57936 | 35096 ft | 515 kts | 84° |
| 2026-05-05 19:40 | 53.32124 | -9.45993 | 35100 ft | 515 kts | 84° |
| 2026-05-05 19:41 | 53.32731 | -9.34046 | 35097 ft | 515 kts | 84° |
| 2026-05-05 19:41 | 53.33326 | -9.22106 | 35100 ft | 515 kts | 84° |
| 2026-05-05 19:42 | 53.33909 | -9.10156 | 35099 ft | 515 kts | 85° |
| 2026-05-05 19:42 | 53.34479 | -8.98214 | 35096 ft | 515 kts | 85° |
| 2026-05-05 19:43 | 53.35034 | -8.86341 | 35089 ft | 515 kts | 85° |
| 2026-05-05 19:43 | 53.35581 | -8.74390 | 35090 ft | 515 kts | 85° |
| 2026-05-05 19:44 | 53.36116 | -8.62439 | 35085 ft | 515 kts | 85° |
| 2026-05-05 19:44 | 53.36639 | -8.50480 | 35090 ft | 515 kts | 85° |
| 2026-05-05 19:45 | 53.37150 | -8.38519 | 35081 ft | 515 kts | 85° |
| 2026-05-05 19:45 | 53.37648 | -8.26569 | 35083 ft | 515 kts | 85° |
| 2026-05-05 19:46 | 53.38135 | -8.14612 | 35076 ft | 515 kts | 85° |
| 2026-05-05 19:46 | 53.38610 | -8.02649 | 35072 ft | 514 kts | 85° |
| 2026-05-05 19:47 | 53.39072 | -7.90700 | 35072 ft | 514 kts | 86° |
| 2026-05-05 19:47 | 53.39542 | -7.78746 | 35070 ft | 514 kts | 82° |
| 2026-05-05 19:48 | 53.40393 | -7.66863 | 35064 ft | 514 kts | 83° |
| 2026-05-05 19:48 | 53.41222 | -7.54967 | 35065 ft | 514 kts | 83° |
| 2026-05-05 19:49 | 53.42049 | -7.43085 | 35060 ft | 513 kts | 83° |
| 2026-05-05 19:49 | 53.42852 | -7.31271 | 35061 ft | 513 kts | 83° |
| 2026-05-05 19:50 | 53.43652 | -7.19388 | 35059 ft | 513 kts | 83° |
| 2026-05-05 19:50 | 53.44438 | -7.07500 | 35058 ft | 512 kts | 83° |
| 2026-05-05 19:51 | 53.45212 | -6.95622 | 35058 ft | 512 kts | 83° |
| 2026-05-05 19:51 | 53.45974 | -6.83745 | 35058 ft | 513 kts | 84° |
| 2026-05-05 19:52 | 53.46720 | -6.71933 | 35059 ft | 513 kts | 84° |
| 2026-05-05 19:52 | 53.47459 | -6.60036 | 35057 ft | 513 kts | 84° |
| 2026-05-05 19:53 | 53.47814 | -6.54256 | 35059 ft | 513 kts | 84° |
| 2026-05-05 19:53 | 53.48536 | -6.42336 | 35057 ft | 513 kts | 84° |
| 2026-05-05 19:54 | 53.49246 | -6.30421 | 35058 ft | 513 kts | 84° |
| 2026-05-05 19:54 | 53.49941 | -6.18572 | 35059 ft | 513 kts | 84° |
| 2026-05-05 19:55 | 53.50626 | -6.06662 | 35057 ft | 512 kts | 84° |
| 2026-05-05 19:55 | 53.51300 | -5.94747 | 35060 ft | 512 kts | 84° |
| 2026-05-05 19:56 | 53.51962 | -5.82844 | 35062 ft | 512 kts | 84° |
| 2026-05-05 19:56 | 53.52612 | -5.70931 | 35064 ft | 512 kts | 84° |
| 2026-05-05 19:57 | 53.53249 | -5.59022 | 35064 ft | 512 kts | 85° |
| 2026-05-05 19:57 | 53.53673 | -5.47090 | 35078 ft | 511 kts | 91° |
| 2026-05-05 19:58 | 53.53359 | -5.35144 | 35065 ft | 512 kts | 93° |
| 2026-05-05 19:58 | 53.53064 | -5.23193 | 35060 ft | 512 kts | 92° |
| 2026-05-05 19:59 | 53.52744 | -5.11233 | 35058 ft | 512 kts | 93° |
| 2026-05-05 19:59 | 53.52348 | -4.99373 | 35058 ft | 511 kts | 93° |
| 2026-05-05 20:00 | 53.51976 | -4.87444 | 35049 ft | 511 kts | 93° |
| 2026-05-05 20:00 | 53.51573 | -4.75523 | 35049 ft | 511 kts | 93° |
| 2026-05-05 20:01 | 53.51173 | -4.63613 | 35054 ft | 510 kts | 94° |
| 2026-05-05 20:01 | 53.50753 | -4.51720 | 35050 ft | 510 kts | 94° |
| 2026-05-05 20:02 | 53.50400 | -4.41833 | 35052 ft | 510 kts | 94° |
| 2026-05-05 20:02 | 53.49962 | -4.29952 | 35047 ft | 510 kts | 94° |
| 2026-05-05 20:03 | 53.49512 | -4.18068 | 35044 ft | 510 kts | 94° |
| 2026-05-05 20:03 | 53.49050 | -4.06185 | 35043 ft | 510 kts | 94° |
| 2026-05-05 20:04 | 53.48247 | -3.94368 | 35059 ft | 509 kts | 107° |
| 2026-05-05 20:04 | 53.45976 | -3.83117 | 35049 ft | 509 kts | 110° |
| 2026-05-05 20:05 | 53.43657 | -3.71988 | 35045 ft | 509 kts | 110° |
| 2026-05-05 20:05 | 53.41308 | -3.60808 | 35042 ft | 508 kts | 115° |
| 2026-05-05 20:06 | 53.38271 | -3.50125 | 35043 ft | 507 kts | 117° |
| 2026-05-05 20:06 | 53.35688 | -3.41223 | 35045 ft | 508 kts | 117° |
| 2026-05-05 20:07 | 53.33269 | -3.30150 | 35046 ft | 509 kts | 106° |
| 2026-05-05 20:07 | 53.31425 | -3.18721 | 35054 ft | 508 kts | 106° |
| 2026-05-05 20:08 | 53.29528 | -3.07344 | 35056 ft | 508 kts | 106° |
| 2026-05-05 20:08 | 53.27646 | -2.95972 | 35059 ft | 508 kts | 106° |
| 2026-05-05 20:09 | 53.25999 | -2.86145 | 35059 ft | 507 kts | 107° |
| 2026-05-05 20:09 | 53.24068 | -2.74835 | 35054 ft | 506 kts | 107° |
| 2026-05-05 20:10 | 53.22075 | -2.63566 | 35051 ft | 506 kts | 107° |
| 2026-05-05 20:10 | 53.20108 | -2.52306 | 35049 ft | 505 kts | 107° |
| 2026-05-05 20:11 | 53.18137 | -2.41219 | 34903 ft | 494 kts | 107° |
| 2026-05-05 20:11 | 53.17170 | -2.35769 | 34545 ft | 488 kts | 107° |
| 2026-05-05 20:11 | 53.16208 | -2.30364 | 34106 ft | 484 kts | 107° |
| 2026-05-05 20:11 | 53.15096 | -2.25105 | 33635 ft | 479 kts | 117° |
| 2026-05-05 20:12 | 53.13416 | -2.20373 | 33187 ft | 472 kts | 128° |
| 2026-05-05 20:12 | 53.11241 | -2.16342 | 32760 ft | 465 kts | 140° |
| 2026-05-05 20:12 | 53.08715 | -2.13038 | 32306 ft | 460 kts | 144° |
| 2026-05-05 20:12 | 53.06146 | -2.09897 | 31834 ft | 456 kts | 145° |
| 2026-05-05 20:13 | 53.03585 | -2.06805 | 31380 ft | 453 kts | 145° |
| 2026-05-05 20:13 | 53.01048 | -2.03735 | 30936 ft | 450 kts | 145° |
| 2026-05-05 20:13 | 52.98535 | -2.00677 | 30482 ft | 447 kts | 145° |
| 2026-05-05 20:13 | 52.96033 | -1.97640 | 30033 ft | 444 kts | 145° |
| 2026-05-05 20:14 | 52.93539 | -1.94630 | 29533 ft | 443 kts | 145° |
| 2026-05-05 20:14 | 52.91049 | -1.91629 | 29013 ft | 443 kts | 145° |
| 2026-05-05 20:14 | 52.88547 | -1.88612 | 28525 ft | 446 kts | 145° |
| 2026-05-05 20:14 | 52.86042 | -1.85594 | 28053 ft | 446 kts | 145° |
| 2026-05-05 20:15 | 52.83528 | -1.82571 | 27566 ft | 447 kts | 146° |
| 2026-05-05 20:15 | 52.81009 | -1.79551 | 27107 ft | 448 kts | 146° |
| 2026-05-05 20:15 | 52.78485 | -1.76527 | 26654 ft | 449 kts | 146° |
| 2026-05-05 20:15 | 52.75966 | -1.73510 | 26184 ft | 445 kts | 146° |
| 2026-05-05 20:16 | 52.73369 | -1.70819 | 25772 ft | 437 kts | 154° |
| 2026-05-05 20:16 | 52.70691 | -1.68508 | 25339 ft | 432 kts | 155° |
| 2026-05-05 20:16 | 52.68038 | -1.66242 | 24867 ft | 427 kts | 155° |
| 2026-05-05 20:16 | 52.65421 | -1.63996 | 24441 ft | 423 kts | 155° |
| 2026-05-05 20:17 | 52.62825 | -1.61758 | 24013 ft | 419 kts | 155° |
| 2026-05-05 20:17 | 52.60287 | -1.59577 | 23586 ft | 415 kts | 155° |
| 2026-05-05 20:17 | 52.57733 | -1.57394 | 23084 ft | 412 kts | 155° |
| 2026-05-05 20:17 | 52.55203 | -1.55233 | 22587 ft | 408 kts | 155° |
| 2026-05-05 20:18 | 52.52693 | -1.53087 | 22100 ft | 405 kts | 154° |
| 2026-05-05 20:18 | 52.50198 | -1.50956 | 21607 ft | 402 kts | 154° |
| 2026-05-05 20:18 | 52.47720 | -1.48845 | 21142 ft | 400 kts | 154° |
| 2026-05-05 20:18 | 52.45259 | -1.46752 | 20682 ft | 397 kts | 154° |
| 2026-05-05 20:19 | 52.42816 | -1.44676 | 20224 ft | 395 kts | 154° |
| 2026-05-05 20:19 | 52.40386 | -1.42612 | 19766 ft | 392 kts | 154° |
| 2026-05-05 20:19 | 52.37972 | -1.40565 | 19332 ft | 390 kts | 154° |
| 2026-05-05 20:19 | 52.35573 | -1.38534 | 18900 ft | 387 kts | 154° |
| 2026-05-05 20:20 | 52.33185 | -1.36514 | 18462 ft | 385 kts | 154° |
| 2026-05-05 20:20 | 52.30811 | -1.34508 | 18005 ft | 383 kts | 154° |
| 2026-05-05 20:20 | 52.28492 | -1.32390 | 17532 ft | 381 kts | 150° |
| 2026-05-05 20:20 | 52.26211 | -1.30221 | 17051 ft | 379 kts | 152° |
| 2026-05-05 20:21 | 52.23917 | -1.28128 | 16583 ft | 377 kts | 152° |
| 2026-05-05 20:21 | 52.21646 | -1.26006 | 16119 ft | 375 kts | 151° |
| 2026-05-05 20:21 | 52.19429 | -1.23889 | 15684 ft | 374 kts | 151° |
| 2026-05-05 20:21 | 52.17189 | -1.21770 | 15210 ft | 372 kts | 151° |
| 2026-05-05 20:22 | 52.14948 | -1.19676 | 14779 ft | 370 kts | 151° |
| 2026-05-05 20:22 | 52.12718 | -1.17592 | 14340 ft | 369 kts | 151° |
| 2026-05-05 20:22 | 52.10499 | -1.15509 | 13915 ft | 368 kts | 151° |
| 2026-05-05 20:22 | 52.08291 | -1.13439 | 13427 ft | 366 kts | 151° |
| 2026-05-05 20:23 | 52.06087 | -1.11379 | 13035 ft | 363 kts | 151° |
| 2026-05-05 20:23 | 52.03936 | -1.09372 | 12989 ft | 349 kts | 151° |
| 2026-05-05 20:23 | 52.01910 | -1.07304 | 12989 ft | 348 kts | 140° |
| 2026-05-05 20:23 | 52.00337 | -1.04331 | 12988 ft | 348 kts | 119° |
| 2026-05-05 20:24 | 51.99524 | -1.00652 | 12993 ft | 349 kts | 97° |
| 2026-05-05 20:24 | 51.99422 | -0.96725 | 12987 ft | 349 kts | 86° |
| 2026-05-05 20:24 | 51.99588 | -0.92815 | 12966 ft | 343 kts | 85° |
| 2026-05-05 20:24 | 51.99717 | -0.89151 | 12691 ft | 340 kts | 88° |
| 2026-05-05 20:25 | 51.99699 | -0.85274 | 12371 ft | 337 kts | 90° |
| 2026-05-05 20:25 | 51.99641 | -0.81485 | 12058 ft | 335 kts | 89° |
| 2026-05-05 20:25 | 51.99637 | -0.77725 | 11754 ft | 332 kts | 88° |
| 2026-05-05 20:25 | 51.99655 | -0.73985 | 11441 ft | 330 kts | 88° |
| 2026-05-05 20:26 | 51.99655 | -0.70274 | 11136 ft | 328 kts | 89° |
| 2026-05-05 20:26 | 51.99641 | -0.66566 | 10729 ft | 330 kts | 89° |
| 2026-05-05 20:26 | 51.99632 | -0.62827 | 10322 ft | 332 kts | 88° |
| 2026-05-05 20:26 | 51.99626 | -0.59075 | 9920 ft | 333 kts | 88° |
| 2026-05-05 20:27 | 51.99617 | -0.55381 | 9577 ft | 331 kts | 88° |
| 2026-05-05 20:27 | 51.99607 | -0.51661 | 9213 ft | 329 kts | 88° |
| 2026-05-05 20:27 | 51.99594 | -0.48008 | 8811 ft | 318 kts | 88° |
| 2026-05-05 20:27 | 51.99581 | -0.44484 | 8429 ft | 307 kts | 88° |
| 2026-05-05 20:28 | 51.99569 | -0.41078 | 8037 ft | 298 kts | 88° |
| 2026-05-05 20:28 | 51.99319 | -0.37811 | 7680 ft | 291 kts | 110° |
| 2026-05-05 20:28 | 51.98245 | -0.35101 | 7343 ft | 285 kts | 137° |
| 2026-05-05 20:28 | 51.96604 | -0.33401 | 7022 ft | 278 kts | 155° |
| 2026-05-05 20:29 | 51.94828 | -0.32225 | 6660 ft | 274 kts | 159° |
| 2026-05-05 20:29 | 51.93047 | -0.31197 | 6318 ft | 269 kts | 160° |
| 2026-05-05 20:29 | 51.91291 | -0.30227 | 6086 ft | 266 kts | 161° |
| 2026-05-05 20:29 | 51.89530 | -0.29267 | 5824 ft | 268 kts | 161° |
| 2026-05-05 20:30 | 51.87758 | -0.28309 | 5574 ft | 269 kts | 161° |
| 2026-05-05 20:30 | 51.85977 | -0.27354 | 5370 ft | 270 kts | 161° |
| 2026-05-05 20:30 | 51.84201 | -0.26407 | 5216 ft | 267 kts | 161° |
| 2026-05-05 20:30 | 51.82447 | -0.25478 | 5099 ft | 264 kts | 161° |
| 2026-05-05 20:31 | 51.80734 | -0.24574 | 4967 ft | 261 kts | 161° |
| 2026-05-05 20:31 | 51.79038 | -0.23685 | 4898 ft | 249 kts | 161° |
| 2026-05-05 20:31 | 51.77432 | -0.22849 | 4752 ft | 240 kts | 161° |
| 2026-05-05 20:31 | 51.75921 | -0.21789 | 4583 ft | 235 kts | 138° |
| 2026-05-05 20:32 | 51.74989 | -0.19809 | 4484 ft | 229 kts | 107° |
| 2026-05-05 20:32 | 51.74699 | -0.17555 | 4427 ft | 226 kts | 94° |
| 2026-05-05 20:32 | 51.74572 | -0.15046 | 4328 ft | 225 kts | 91° |
| 2026-05-05 20:32 | 51.74479 | -0.12539 | 4207 ft | 224 kts | 91° |
| 2026-05-05 20:33 | 51.74393 | -0.10030 | 4099 ft | 224 kts | 91° |
| 2026-05-05 20:33 | 51.74308 | -0.07543 | 3975 ft | 222 kts | 91° |
| 2026-05-05 20:33 | 51.74225 | -0.05056 | 3850 ft | 221 kts | 91° |
| 2026-05-05 20:33 | 51.74142 | -0.02628 | 3713 ft | 215 kts | 91° |
| 2026-05-05 20:34 | 51.74060 | -0.00231 | 3573 ft | 213 kts | 91° |
| 2026-05-05 20:34 | 51.74222 | 0.02068 | 3515 ft | 208 kts | 63° |
| 2026-05-05 20:34 | 51.75168 | 0.03829 | 3495 ft | 207 kts | 37° |
| 2026-05-05 20:34 | 51.76263 | 0.05239 | 3439 ft | 193 kts | 40° |
| 2026-05-05 20:35 | 51.77252 | 0.06659 | 3179 ft | 187 kts | 42° |
| 2026-05-05 20:35 | 51.78194 | 0.08059 | 2932 ft | 181 kts | 43° |
| 2026-05-05 20:35 | 51.79102 | 0.09416 | 2680 ft | 175 kts | 43° |
| 2026-05-05 20:35 | 51.79963 | 0.10707 | 2443 ft | 162 kts | 43° |
| 2026-05-05 20:36 | 51.80758 | 0.11896 | 2229 ft | 150 kts | 43° |
| 2026-05-05 20:36 | 51.81522 | 0.13039 | 2074 ft | 148 kts | 43° |
| 2026-05-05 20:36 | 51.82273 | 0.14154 | 1977 ft | 150 kts | 43° |
| 2026-05-05 20:36 | 51.83047 | 0.15284 | 1673 ft | 149 kts | 43° |
| 2026-05-05 20:37 | 51.83798 | 0.16431 | 1385 ft | 150 kts | 44° |
| 2026-05-05 20:37 | 51.84308 | 0.17205 | 1256 ft | 151 kts | 43° |
| 2026-05-05 20:37 | 51.85328 | 0.18728 | 962 ft | 153 kts | 43° |
| 2026-05-05 20:37 | 51.86097 | 0.19873 | 763 ft | 152 kts | 42° |
| 2026-05-05 20:38 | 51.86857 | 0.21018 | 581 ft | 151 kts | 42° |
| 2026-05-05 20:38 | 51.87614 | 0.22151 | 395 ft | 148 kts | 42° |
| 2026-05-05 20:38 | 51.88321 | 0.23209 | 363 ft | 120 kts | 43° |
| 2026-05-05 20:38 | 51.88742 | 0.23840 | 362 ft | 44 kts | 43° |
| 2026-05-05 20:39 | 51.88842 | 0.24047 | 363 ft | 18 kts | 69° |
| 2026-05-05 20:39 | 51.88880 | 0.24221 | 359 ft | 16 kts | 73° |
| 2026-05-05 20:39 | 51.88905 | 0.24354 | 363 ft | 0 kts | 73° |
| 2026-05-05 20:41 | 51.88911 | 0.24388 | 360 ft | 6 kts | 73° |
| 2026-05-05 20:41 | 51.88917 | 0.24473 | 358 ft | 8 kts | 99° |
| 2026-05-05 20:41 | 51.88883 | 0.24557 | 363 ft | 11 kts | 127° |
| 2026-05-05 20:41 | 51.88828 | 0.24654 | 362 ft | 11 kts | 139° |
| 2026-05-05 20:42 | 51.88766 | 0.24657 | 361 ft | 10 kts | 206° |
| 2026-05-05 20:42 | 51.88700 | 0.24565 | 363 ft | 14 kts | 223° |
| 2026-05-05 20:42 | 51.88627 | 0.24454 | 362 ft | 14 kts | 223° |
| 2026-05-05 20:42 | 51.88573 | 0.24377 | 362 ft | 7 kts | 212° |
| 2026-05-05 20:43 | 51.88547 | 0.24373 | 361 ft | 3 kts | 169° |
| 2026-05-05 20:43 | 51.88522 | 0.24400 | 364 ft | 6 kts | 137° |
| 2026-05-05 20:43 | 51.88477 | 0.24480 | 363 ft | 10 kts | 131° |
| 2026-05-05 20:43 | 51.88450 | 0.24522 | 364 ft | 3 kts | 150° |
| 2026-05-05 20:44 | 51.88432 | 0.24521 | 362 ft | 3 kts | 190° |
| 2026-05-05 20:44 | 51.88402 | 0.24491 | 362 ft | 7 kts | 219° |
| 2026-05-05 20:44 | 51.88370 | 0.24444 | 363 ft | 0 kts | 222° |